<?xml version="1.0" encoding="UTF-8" standalone="no" ?>
<gpx xmlns="http://www.topografix.com/GPX/1/1" xmlns:xsi="http://www.w3.org/2001/XMLSchema-instance" xsi:schemaLocation="http://www.topografix.com/GPX/1/1 http://www.topografix.com/GPX/1/1/gpx.xsd" version="1.1" creator="VisuGPX - https://www.visugpx.com">
  <metadata>
    <name>Touques GPX</name>
  </metadata>
  <trk>
    <name><![CDATA[Touques GPX]]></name>
    <trkseg>
      <trkpt lat="49.3442" lon="0.10263">
        <ele>5.9</ele>
        <time>2011-09-11T12:37:00Z</time>
      </trkpt>
      <trkpt lat="49.34422" lon="0.10265">
        <ele>5.4</ele>
        <time>2011-09-11T12:37:19Z</time>
      </trkpt>
      <trkpt lat="49.34424" lon="0.10266">
        <ele>6.9</ele>
        <time>2011-09-11T12:37:37Z</time>
      </trkpt>
      <trkpt lat="49.34424" lon="0.10268">
        <ele>7.8</ele>
        <time>2011-09-11T12:37:39Z</time>
      </trkpt>
      <trkpt lat="49.34426" lon="0.10277">
        <ele>9.3</ele>
        <time>2011-09-11T12:37:49Z</time>
      </trkpt>
      <trkpt lat="49.3443" lon="0.1028">
        <ele>6.4</ele>
        <time>2011-09-11T12:37:56Z</time>
      </trkpt>
      <trkpt lat="49.34433" lon="0.10276">
        <ele>3.5</ele>
        <time>2011-09-11T12:38:04Z</time>
      </trkpt>
      <trkpt lat="49.34437" lon="0.10276">
        <ele>4</ele>
        <time>2011-09-11T12:38:06Z</time>
      </trkpt>
      <trkpt lat="49.34444" lon="0.10277">
        <ele>3</ele>
        <time>2011-09-11T12:38:11Z</time>
      </trkpt>
      <trkpt lat="49.34447" lon="0.10276">
        <ele>3</ele>
        <time>2011-09-11T12:38:13Z</time>
      </trkpt>
      <trkpt lat="49.34457" lon="0.10267">
        <ele>0.6</ele>
        <time>2011-09-11T12:38:26Z</time>
      </trkpt>
      <trkpt lat="49.3446" lon="0.10265">
        <ele>1.6</ele>
        <time>2011-09-11T12:38:28Z</time>
      </trkpt>
      <trkpt lat="49.3447" lon="0.10265">
        <ele>0.1</ele>
        <time>2011-09-11T12:38:36Z</time>
      </trkpt>
      <trkpt lat="49.34483" lon="0.10272">
        <ele>-2.3</ele>
        <time>2011-09-11T12:38:50Z</time>
      </trkpt>
      <trkpt lat="49.34484" lon="0.10272">
        <ele>-2.3</ele>
        <time>2011-09-11T12:38:51Z</time>
      </trkpt>
      <trkpt lat="49.34487" lon="0.10271">
        <ele>-1.8</ele>
        <time>2011-09-11T12:38:54Z</time>
      </trkpt>
      <trkpt lat="49.34498" lon="0.10283">
        <ele>-1.3</ele>
        <time>2011-09-11T12:39:09Z</time>
      </trkpt>
      <trkpt lat="49.34506" lon="0.10299">
        <ele>-0.8</ele>
        <time>2011-09-11T12:39:18Z</time>
      </trkpt>
      <trkpt lat="49.34512" lon="0.10299">
        <ele>1.1</ele>
        <time>2011-09-11T12:39:24Z</time>
      </trkpt>
      <trkpt lat="49.34517" lon="0.10299">
        <ele>3.5</ele>
        <time>2011-09-11T12:39:30Z</time>
      </trkpt>
      <trkpt lat="49.34534" lon="0.10294">
        <ele>6.4</ele>
        <time>2011-09-11T12:39:51Z</time>
      </trkpt>
      <trkpt lat="49.34536" lon="0.10296">
        <ele>5.9</ele>
        <time>2011-09-11T12:39:53Z</time>
      </trkpt>
      <trkpt lat="49.3454" lon="0.103">
        <ele>6.4</ele>
        <time>2011-09-11T12:39:57Z</time>
      </trkpt>
      <trkpt lat="49.34543" lon="0.10306">
        <ele>7.3</ele>
        <time>2011-09-11T12:40:02Z</time>
      </trkpt>
      <trkpt lat="49.34547" lon="0.10315">
        <ele>9.8</ele>
        <time>2011-09-11T12:40:09Z</time>
      </trkpt>
      <trkpt lat="49.34559" lon="0.10315">
        <ele>12.6</ele>
        <time>2011-09-11T12:40:21Z</time>
      </trkpt>
      <trkpt lat="49.34562" lon="0.10313">
        <ele>14.1</ele>
        <time>2011-09-11T12:40:24Z</time>
      </trkpt>
      <trkpt lat="49.34586" lon="0.10299">
        <ele>16</ele>
        <time>2011-09-11T12:40:41Z</time>
      </trkpt>
      <trkpt lat="49.34605" lon="0.10303">
        <ele>14.1</ele>
        <time>2011-09-11T12:40:58Z</time>
      </trkpt>
      <trkpt lat="49.34619" lon="0.10314">
        <ele>10.2</ele>
        <time>2011-09-11T12:41:12Z</time>
      </trkpt>
      <trkpt lat="49.34628" lon="0.10311">
        <ele>10.2</ele>
        <time>2011-09-11T12:41:22Z</time>
      </trkpt>
      <trkpt lat="49.34635" lon="0.10307">
        <ele>10.2</ele>
        <time>2011-09-11T12:41:28Z</time>
      </trkpt>
      <trkpt lat="49.34647" lon="0.10297">
        <ele>10.2</ele>
        <time>2011-09-11T12:41:39Z</time>
      </trkpt>
      <trkpt lat="49.34656" lon="0.10292">
        <ele>10.2</ele>
        <time>2011-09-11T12:41:46Z</time>
      </trkpt>
      <trkpt lat="49.34671" lon="0.1028">
        <ele>10.2</ele>
        <time>2011-09-11T12:42:01Z</time>
      </trkpt>
      <trkpt lat="49.34677" lon="0.10279">
        <ele>7.8</ele>
        <time>2011-09-11T12:42:07Z</time>
      </trkpt>
      <trkpt lat="49.34681" lon="0.1028">
        <ele>6.9</ele>
        <time>2011-09-11T12:42:09Z</time>
      </trkpt>
      <trkpt lat="49.347" lon="0.103">
        <ele>7.8</ele>
        <time>2011-09-11T12:42:25Z</time>
      </trkpt>
      <trkpt lat="49.34704" lon="0.10301">
        <ele>7.8</ele>
        <time>2011-09-11T12:42:28Z</time>
      </trkpt>
      <trkpt lat="49.34709" lon="0.103">
        <ele>7.8</ele>
        <time>2011-09-11T12:42:32Z</time>
      </trkpt>
      <trkpt lat="49.34715" lon="0.10301">
        <ele>9.3</ele>
        <time>2011-09-11T12:42:38Z</time>
      </trkpt>
      <trkpt lat="49.34718" lon="0.103">
        <ele>9.8</ele>
        <time>2011-09-11T12:42:41Z</time>
      </trkpt>
      <trkpt lat="49.34732" lon="0.10287">
        <ele>10.2</ele>
        <time>2011-09-11T12:42:55Z</time>
      </trkpt>
      <trkpt lat="49.34746" lon="0.10278">
        <ele>5.4</ele>
        <time>2011-09-11T12:43:10Z</time>
      </trkpt>
      <trkpt lat="49.3476" lon="0.10266">
        <ele>4.5</ele>
        <time>2011-09-11T12:43:26Z</time>
      </trkpt>
      <trkpt lat="49.34776" lon="0.10258">
        <ele>4.5</ele>
        <time>2011-09-11T12:43:39Z</time>
      </trkpt>
      <trkpt lat="49.34782" lon="0.10258">
        <ele>4.9</ele>
        <time>2011-09-11T12:43:44Z</time>
      </trkpt>
      <trkpt lat="49.34798" lon="0.10249">
        <ele>8.8</ele>
        <time>2011-09-11T12:43:57Z</time>
      </trkpt>
      <trkpt lat="49.34812" lon="0.10237">
        <ele>8.3</ele>
        <time>2011-09-11T12:44:10Z</time>
      </trkpt>
      <trkpt lat="49.34813" lon="0.10234">
        <ele>6.9</ele>
        <time>2011-09-11T12:44:12Z</time>
      </trkpt>
      <trkpt lat="49.34826" lon="0.10224">
        <ele>2.1</ele>
        <time>2011-09-11T12:44:22Z</time>
      </trkpt>
      <trkpt lat="49.34829" lon="0.10223">
        <ele>1.6</ele>
        <time>2011-09-11T12:44:25Z</time>
      </trkpt>
      <trkpt lat="49.3484" lon="0.10217">
        <ele>1.6</ele>
        <time>2011-09-11T12:44:36Z</time>
      </trkpt>
      <trkpt lat="49.3486" lon="0.10205">
        <ele>4.9</ele>
        <time>2011-09-11T12:44:54Z</time>
      </trkpt>
      <trkpt lat="49.3488" lon="0.10198">
        <ele>3</ele>
        <time>2011-09-11T12:45:13Z</time>
      </trkpt>
      <trkpt lat="49.34896" lon="0.10209">
        <ele>4.5</ele>
        <time>2011-09-11T12:45:27Z</time>
      </trkpt>
      <trkpt lat="49.34911" lon="0.10224">
        <ele>7.3</ele>
        <time>2011-09-11T12:45:42Z</time>
      </trkpt>
      <trkpt lat="49.34928" lon="0.10239">
        <ele>9.3</ele>
        <time>2011-09-11T12:46:01Z</time>
      </trkpt>
      <trkpt lat="49.34937" lon="0.10252">
        <ele>7.3</ele>
        <time>2011-09-11T12:46:14Z</time>
      </trkpt>
      <trkpt lat="49.34937" lon="0.10251">
        <ele>7.3</ele>
        <time>2011-09-11T12:46:15Z</time>
      </trkpt>
      <trkpt lat="49.34951" lon="0.1026">
        <ele>8.8</ele>
        <time>2011-09-11T12:46:29Z</time>
      </trkpt>
      <trkpt lat="49.34961" lon="0.10286">
        <ele>13.6</ele>
        <time>2011-09-11T12:46:46Z</time>
      </trkpt>
      <trkpt lat="49.34964" lon="0.10297">
        <ele>16.5</ele>
        <time>2011-09-11T12:46:53Z</time>
      </trkpt>
      <trkpt lat="49.34975" lon="0.10298">
        <ele>17.9</ele>
        <time>2011-09-11T12:47:05Z</time>
      </trkpt>
      <trkpt lat="49.34976" lon="0.1031">
        <ele>17.4</ele>
        <time>2011-09-11T12:47:17Z</time>
      </trkpt>
      <trkpt lat="49.34975" lon="0.10321">
        <ele>17.4</ele>
        <time>2011-09-11T12:47:25Z</time>
      </trkpt>
      <trkpt lat="49.34974" lon="0.10327">
        <ele>17.9</ele>
        <time>2011-09-11T12:47:30Z</time>
      </trkpt>
      <trkpt lat="49.34976" lon="0.10342">
        <ele>15</ele>
        <time>2011-09-11T12:47:40Z</time>
      </trkpt>
      <trkpt lat="49.34977" lon="0.10351">
        <ele>13.6</ele>
        <time>2011-09-11T12:47:47Z</time>
      </trkpt>
      <trkpt lat="49.34979" lon="0.10369">
        <ele>11.2</ele>
        <time>2011-09-11T12:47:58Z</time>
      </trkpt>
      <trkpt lat="49.34979" lon="0.10406">
        <ele>14.1</ele>
        <time>2011-09-11T12:48:16Z</time>
      </trkpt>
      <trkpt lat="49.34982" lon="0.10411">
        <ele>15</ele>
        <time>2011-09-11T12:48:22Z</time>
      </trkpt>
      <trkpt lat="49.34998" lon="0.10416">
        <ele>18.4</ele>
        <time>2011-09-11T12:48:41Z</time>
      </trkpt>
      <trkpt lat="49.35005" lon="0.10413">
        <ele>17.4</ele>
        <time>2011-09-11T12:48:45Z</time>
      </trkpt>
      <trkpt lat="49.35015" lon="0.10411">
        <ele>19.8</ele>
        <time>2011-09-11T12:48:55Z</time>
      </trkpt>
      <trkpt lat="49.3502" lon="0.10414">
        <ele>20.3</ele>
        <time>2011-09-11T12:48:59Z</time>
      </trkpt>
      <trkpt lat="49.35031" lon="0.10434">
        <ele>19.4</ele>
        <time>2011-09-11T12:49:14Z</time>
      </trkpt>
      <trkpt lat="49.35035" lon="0.10462">
        <ele>21.3</ele>
        <time>2011-09-11T12:49:31Z</time>
      </trkpt>
      <trkpt lat="49.35046" lon="0.10471">
        <ele>26.6</ele>
        <time>2011-09-11T12:49:46Z</time>
      </trkpt>
      <trkpt lat="49.35075" lon="0.10474">
        <ele>32.3</ele>
        <time>2011-09-11T12:50:10Z</time>
      </trkpt>
      <trkpt lat="49.35085" lon="0.10483">
        <ele>34.3</ele>
        <time>2011-09-11T12:50:27Z</time>
      </trkpt>
      <trkpt lat="49.35085" lon="0.10485">
        <ele>34.7</ele>
        <time>2011-09-11T12:50:28Z</time>
      </trkpt>
      <trkpt lat="49.3508" lon="0.10514">
        <ele>33.3</ele>
        <time>2011-09-11T12:50:45Z</time>
      </trkpt>
      <trkpt lat="49.35077" lon="0.10529">
        <ele>32.3</ele>
        <time>2011-09-11T12:50:57Z</time>
      </trkpt>
      <trkpt lat="49.35075" lon="0.10546">
        <ele>35.2</ele>
        <time>2011-09-11T12:51:08Z</time>
      </trkpt>
      <trkpt lat="49.35072" lon="0.10553">
        <ele>35.2</ele>
        <time>2011-09-11T12:51:12Z</time>
      </trkpt>
      <trkpt lat="49.35071" lon="0.10565">
        <ele>36.7</ele>
        <time>2011-09-11T12:51:18Z</time>
      </trkpt>
      <trkpt lat="49.35071" lon="0.10576">
        <ele>37.1</ele>
        <time>2011-09-11T12:51:23Z</time>
      </trkpt>
      <trkpt lat="49.35074" lon="0.10596">
        <ele>37.6</ele>
        <time>2011-09-11T12:51:32Z</time>
      </trkpt>
      <trkpt lat="49.35078" lon="0.10613">
        <ele>35.7</ele>
        <time>2011-09-11T12:51:44Z</time>
      </trkpt>
      <trkpt lat="49.35079" lon="0.10617">
        <ele>35.2</ele>
        <time>2011-09-11T12:51:46Z</time>
      </trkpt>
      <trkpt lat="49.35085" lon="0.10626">
        <ele>33.8</ele>
        <time>2011-09-11T12:51:50Z</time>
      </trkpt>
      <trkpt lat="49.35095" lon="0.10646">
        <ele>29.9</ele>
        <time>2011-09-11T12:52:01Z</time>
      </trkpt>
      <trkpt lat="49.35093" lon="0.10656">
        <ele>30.4</ele>
        <time>2011-09-11T12:52:04Z</time>
      </trkpt>
      <trkpt lat="49.35099" lon="0.1067">
        <ele>27.5</ele>
        <time>2011-09-11T12:52:13Z</time>
      </trkpt>
      <trkpt lat="49.35098" lon="0.10674">
        <ele>26.6</ele>
        <time>2011-09-11T12:52:15Z</time>
      </trkpt>
      <trkpt lat="49.35096" lon="0.10674">
        <ele>27.1</ele>
        <time>2011-09-11T12:52:17Z</time>
      </trkpt>
      <trkpt lat="49.35096" lon="0.10676">
        <ele>27.1</ele>
        <time>2011-09-11T12:52:19Z</time>
      </trkpt>
      <trkpt lat="49.35096" lon="0.10695">
        <ele>29</ele>
        <time>2011-09-11T12:52:29Z</time>
      </trkpt>
      <trkpt lat="49.351" lon="0.10702">
        <ele>29</ele>
        <time>2011-09-11T12:52:34Z</time>
      </trkpt>
      <trkpt lat="49.351" lon="0.10711">
        <ele>29.5</ele>
        <time>2011-09-11T12:52:38Z</time>
      </trkpt>
      <trkpt lat="49.35101" lon="0.10714">
        <ele>29.5</ele>
        <time>2011-09-11T12:52:40Z</time>
      </trkpt>
      <trkpt lat="49.35093" lon="0.10731">
        <ele>28.5</ele>
        <time>2011-09-11T12:52:55Z</time>
      </trkpt>
      <trkpt lat="49.35092" lon="0.10733">
        <ele>28.5</ele>
        <time>2011-09-11T12:52:56Z</time>
      </trkpt>
      <trkpt lat="49.35087" lon="0.1074">
        <ele>28</ele>
        <time>2011-09-11T12:53:00Z</time>
      </trkpt>
      <trkpt lat="49.35085" lon="0.1075">
        <ele>27.5</ele>
        <time>2011-09-11T12:53:05Z</time>
      </trkpt>
      <trkpt lat="49.35083" lon="0.10759">
        <ele>28</ele>
        <time>2011-09-11T12:53:09Z</time>
      </trkpt>
      <trkpt lat="49.35081" lon="0.10764">
        <ele>27.1</ele>
        <time>2011-09-11T12:53:13Z</time>
      </trkpt>
      <trkpt lat="49.35076" lon="0.10768">
        <ele>27.1</ele>
        <time>2011-09-11T12:53:17Z</time>
      </trkpt>
      <trkpt lat="49.35062" lon="0.10769">
        <ele>29</ele>
        <time>2011-09-11T12:53:30Z</time>
      </trkpt>
      <trkpt lat="49.35055" lon="0.10769">
        <ele>29.9</ele>
        <time>2011-09-11T12:53:35Z</time>
      </trkpt>
      <trkpt lat="49.3504" lon="0.10766">
        <ele>30.9</ele>
        <time>2011-09-11T12:53:49Z</time>
      </trkpt>
      <trkpt lat="49.35018" lon="0.10753">
        <ele>30.9</ele>
        <time>2011-09-11T12:54:08Z</time>
      </trkpt>
      <trkpt lat="49.35002" lon="0.10752">
        <ele>32.8</ele>
        <time>2011-09-11T12:54:24Z</time>
      </trkpt>
      <trkpt lat="49.34994" lon="0.10751">
        <ele>34.7</ele>
        <time>2011-09-11T12:54:40Z</time>
      </trkpt>
      <trkpt lat="49.34988" lon="0.10757">
        <ele>37.6</ele>
        <time>2011-09-11T12:54:54Z</time>
      </trkpt>
      <trkpt lat="49.34976" lon="0.10766">
        <ele>40</ele>
        <time>2011-09-11T12:55:09Z</time>
      </trkpt>
      <trkpt lat="49.34973" lon="0.1077">
        <ele>40.5</ele>
        <time>2011-09-11T12:55:29Z</time>
      </trkpt>
      <trkpt lat="49.3497" lon="0.10771">
        <ele>40.5</ele>
        <time>2011-09-11T12:55:36Z</time>
      </trkpt>
      <trkpt lat="49.34967" lon="0.10772">
        <ele>39.6</ele>
        <time>2011-09-11T12:55:38Z</time>
      </trkpt>
      <trkpt lat="49.34952" lon="0.1079">
        <ele>38.1</ele>
        <time>2011-09-11T12:55:55Z</time>
      </trkpt>
      <trkpt lat="49.34935" lon="0.10814">
        <ele>40</ele>
        <time>2011-09-11T12:56:17Z</time>
      </trkpt>
      <trkpt lat="49.34922" lon="0.10833">
        <ele>41.5</ele>
        <time>2011-09-11T12:56:33Z</time>
      </trkpt>
      <trkpt lat="49.34922" lon="0.10834">
        <ele>42</ele>
        <time>2011-09-11T12:56:34Z</time>
      </trkpt>
      <trkpt lat="49.34915" lon="0.10843">
        <ele>42</ele>
        <time>2011-09-11T12:56:47Z</time>
      </trkpt>
      <trkpt lat="49.34914" lon="0.10847">
        <ele>42</ele>
        <time>2011-09-11T12:56:50Z</time>
      </trkpt>
      <trkpt lat="49.3491" lon="0.10854">
        <ele>42.4</ele>
        <time>2011-09-11T12:56:56Z</time>
      </trkpt>
      <trkpt lat="49.34904" lon="0.10857">
        <ele>42.4</ele>
        <time>2011-09-11T12:57:00Z</time>
      </trkpt>
      <trkpt lat="49.34902" lon="0.10865">
        <ele>42</ele>
        <time>2011-09-11T12:57:05Z</time>
      </trkpt>
      <trkpt lat="49.34898" lon="0.10871">
        <ele>41.5</ele>
        <time>2011-09-11T12:57:10Z</time>
      </trkpt>
      <trkpt lat="49.34897" lon="0.10873">
        <ele>41.5</ele>
        <time>2011-09-11T12:57:12Z</time>
      </trkpt>
      <trkpt lat="49.34891" lon="0.10878">
        <ele>42</ele>
        <time>2011-09-11T12:57:17Z</time>
      </trkpt>
      <trkpt lat="49.34875" lon="0.109">
        <ele>42.9</ele>
        <time>2011-09-11T12:57:35Z</time>
      </trkpt>
      <trkpt lat="49.34871" lon="0.10908">
        <ele>44.4</ele>
        <time>2011-09-11T12:57:41Z</time>
      </trkpt>
      <trkpt lat="49.34858" lon="0.10924">
        <ele>43.4</ele>
        <time>2011-09-11T12:57:58Z</time>
      </trkpt>
      <trkpt lat="49.34849" lon="0.10924">
        <ele>43.4</ele>
        <time>2011-09-11T12:58:14Z</time>
      </trkpt>
      <trkpt lat="49.34847" lon="0.10922">
        <ele>43.4</ele>
        <time>2011-09-11T12:58:16Z</time>
      </trkpt>
      <trkpt lat="49.34844" lon="0.10915">
        <ele>43.4</ele>
        <time>2011-09-11T12:58:20Z</time>
      </trkpt>
      <trkpt lat="49.34832" lon="0.10899">
        <ele>42.9</ele>
        <time>2011-09-11T12:58:39Z</time>
      </trkpt>
      <trkpt lat="49.34818" lon="0.10868">
        <ele>42.9</ele>
        <time>2011-09-11T12:58:52Z</time>
      </trkpt>
      <trkpt lat="49.34804" lon="0.10851">
        <ele>43.9</ele>
        <time>2011-09-11T12:59:04Z</time>
      </trkpt>
      <trkpt lat="49.34799" lon="0.10849">
        <ele>44.8</ele>
        <time>2011-09-11T12:59:09Z</time>
      </trkpt>
      <trkpt lat="49.34785" lon="0.10833">
        <ele>45.3</ele>
        <time>2011-09-11T12:59:23Z</time>
      </trkpt>
      <trkpt lat="49.34771" lon="0.10811">
        <ele>44.4</ele>
        <time>2011-09-11T12:59:40Z</time>
      </trkpt>
      <trkpt lat="49.3476" lon="0.10796">
        <ele>43.4</ele>
        <time>2011-09-11T12:59:55Z</time>
      </trkpt>
      <trkpt lat="49.3474" lon="0.10767">
        <ele>41</ele>
        <time>2011-09-11T13:00:19Z</time>
      </trkpt>
      <trkpt lat="49.34727" lon="0.10744">
        <ele>39.6</ele>
        <time>2011-09-11T13:00:39Z</time>
      </trkpt>
      <trkpt lat="49.34719" lon="0.1073">
        <ele>38.6</ele>
        <time>2011-09-11T13:00:48Z</time>
      </trkpt>
      <trkpt lat="49.3471" lon="0.10714">
        <ele>38.6</ele>
        <time>2011-09-11T13:00:58Z</time>
      </trkpt>
      <trkpt lat="49.34698" lon="0.10697">
        <ele>38.6</ele>
        <time>2011-09-11T13:01:12Z</time>
      </trkpt>
      <trkpt lat="49.34685" lon="0.10683">
        <ele>39.1</ele>
        <time>2011-09-11T13:01:30Z</time>
      </trkpt>
      <trkpt lat="49.34677" lon="0.10673">
        <ele>39.1</ele>
        <time>2011-09-11T13:01:35Z</time>
      </trkpt>
      <trkpt lat="49.34664" lon="0.10651">
        <ele>38.6</ele>
        <time>2011-09-11T13:01:50Z</time>
      </trkpt>
      <trkpt lat="49.34659" lon="0.10649">
        <ele>38.1</ele>
        <time>2011-09-11T13:01:52Z</time>
      </trkpt>
      <trkpt lat="49.34653" lon="0.10646">
        <ele>37.6</ele>
        <time>2011-09-11T13:01:56Z</time>
      </trkpt>
      <trkpt lat="49.34647" lon="0.10656">
        <ele>35.7</ele>
        <time>2011-09-11T13:02:03Z</time>
      </trkpt>
      <trkpt lat="49.3465" lon="0.10663">
        <ele>33.3</ele>
        <time>2011-09-11T13:02:12Z</time>
      </trkpt>
      <trkpt lat="49.34653" lon="0.10688">
        <ele>29.5</ele>
        <time>2011-09-11T13:02:28Z</time>
      </trkpt>
      <trkpt lat="49.34656" lon="0.10701">
        <ele>28</ele>
        <time>2011-09-11T13:02:36Z</time>
      </trkpt>
      <trkpt lat="49.34656" lon="0.10705">
        <ele>27.5</ele>
        <time>2011-09-11T13:02:39Z</time>
      </trkpt>
      <trkpt lat="49.34657" lon="0.10731">
        <ele>29</ele>
        <time>2011-09-11T13:02:52Z</time>
      </trkpt>
      <trkpt lat="49.34657" lon="0.10736">
        <ele>29.5</ele>
        <time>2011-09-11T13:02:56Z</time>
      </trkpt>
      <trkpt lat="49.34658" lon="0.10751">
        <ele>30.9</ele>
        <time>2011-09-11T13:03:05Z</time>
      </trkpt>
      <trkpt lat="49.34655" lon="0.10765">
        <ele>33.3</ele>
        <time>2011-09-11T13:03:15Z</time>
      </trkpt>
      <trkpt lat="49.34653" lon="0.10781">
        <ele>31.9</ele>
        <time>2011-09-11T13:03:22Z</time>
      </trkpt>
      <trkpt lat="49.34652" lon="0.10786">
        <ele>32.3</ele>
        <time>2011-09-11T13:03:24Z</time>
      </trkpt>
      <trkpt lat="49.34649" lon="0.10801">
        <ele>27.5</ele>
        <time>2011-09-11T13:03:34Z</time>
      </trkpt>
      <trkpt lat="49.34648" lon="0.10807">
        <ele>26.1</ele>
        <time>2011-09-11T13:03:38Z</time>
      </trkpt>
      <trkpt lat="49.34646" lon="0.10818">
        <ele>26.1</ele>
        <time>2011-09-11T13:03:44Z</time>
      </trkpt>
      <trkpt lat="49.34643" lon="0.10835">
        <ele>27.1</ele>
        <time>2011-09-11T13:03:55Z</time>
      </trkpt>
      <trkpt lat="49.34642" lon="0.10841">
        <ele>27.1</ele>
        <time>2011-09-11T13:03:58Z</time>
      </trkpt>
      <trkpt lat="49.34642" lon="0.10853">
        <ele>29.5</ele>
        <time>2011-09-11T13:04:04Z</time>
      </trkpt>
      <trkpt lat="49.34645" lon="0.10871">
        <ele>29</ele>
        <time>2011-09-11T13:04:12Z</time>
      </trkpt>
      <trkpt lat="49.34641" lon="0.10878">
        <ele>29</ele>
        <time>2011-09-11T13:04:16Z</time>
      </trkpt>
      <trkpt lat="49.34636" lon="0.10902">
        <ele>26.1</ele>
        <time>2011-09-11T13:04:30Z</time>
      </trkpt>
      <trkpt lat="49.34638" lon="0.10908">
        <ele>25.6</ele>
        <time>2011-09-11T13:04:33Z</time>
      </trkpt>
      <trkpt lat="49.34637" lon="0.10925">
        <ele>30.9</ele>
        <time>2011-09-11T13:04:44Z</time>
      </trkpt>
      <trkpt lat="49.34638" lon="0.1093">
        <ele>31.4</ele>
        <time>2011-09-11T13:04:47Z</time>
      </trkpt>
      <trkpt lat="49.34636" lon="0.10937">
        <ele>31.4</ele>
        <time>2011-09-11T13:04:51Z</time>
      </trkpt>
      <trkpt lat="49.34635" lon="0.10958">
        <ele>32.3</ele>
        <time>2011-09-11T13:05:03Z</time>
      </trkpt>
      <trkpt lat="49.34634" lon="0.10986">
        <ele>34.3</ele>
        <time>2011-09-11T13:05:18Z</time>
      </trkpt>
      <trkpt lat="49.34635" lon="0.10993">
        <ele>34.7</ele>
        <time>2011-09-11T13:05:21Z</time>
      </trkpt>
      <trkpt lat="49.34637" lon="0.11003">
        <ele>34.3</ele>
        <time>2011-09-11T13:05:26Z</time>
      </trkpt>
      <trkpt lat="49.34637" lon="0.11008">
        <ele>35.7</ele>
        <time>2011-09-11T13:05:29Z</time>
      </trkpt>
      <trkpt lat="49.34636" lon="0.11018">
        <ele>36.7</ele>
        <time>2011-09-11T13:05:33Z</time>
      </trkpt>
      <trkpt lat="49.34636" lon="0.11023">
        <ele>37.6</ele>
        <time>2011-09-11T13:05:36Z</time>
      </trkpt>
      <trkpt lat="49.34633" lon="0.11036">
        <ele>39.1</ele>
        <time>2011-09-11T13:05:43Z</time>
      </trkpt>
      <trkpt lat="49.34634" lon="0.11062">
        <ele>36.7</ele>
        <time>2011-09-11T13:05:59Z</time>
      </trkpt>
      <trkpt lat="49.34631" lon="0.11081">
        <ele>32.8</ele>
        <time>2011-09-11T13:06:08Z</time>
      </trkpt>
      <trkpt lat="49.34631" lon="0.11093">
        <ele>33.3</ele>
        <time>2011-09-11T13:06:14Z</time>
      </trkpt>
      <trkpt lat="49.3463" lon="0.11096">
        <ele>32.8</ele>
        <time>2011-09-11T13:06:16Z</time>
      </trkpt>
      <trkpt lat="49.3463" lon="0.111">
        <ele>32.3</ele>
        <time>2011-09-11T13:06:18Z</time>
      </trkpt>
      <trkpt lat="49.3463" lon="0.11104">
        <ele>31.4</ele>
        <time>2011-09-11T13:06:20Z</time>
      </trkpt>
      <trkpt lat="49.34628" lon="0.11134">
        <ele>33.3</ele>
        <time>2011-09-11T13:06:37Z</time>
      </trkpt>
      <trkpt lat="49.34628" lon="0.11156">
        <ele>32.8</ele>
        <time>2011-09-11T13:06:48Z</time>
      </trkpt>
      <trkpt lat="49.34628" lon="0.11183">
        <ele>33.8</ele>
        <time>2011-09-11T13:07:01Z</time>
      </trkpt>
      <trkpt lat="49.34625" lon="0.11212">
        <ele>32.8</ele>
        <time>2011-09-11T13:07:15Z</time>
      </trkpt>
      <trkpt lat="49.34626" lon="0.11229">
        <ele>31.9</ele>
        <time>2011-09-11T13:07:24Z</time>
      </trkpt>
      <trkpt lat="49.34625" lon="0.11241">
        <ele>31.9</ele>
        <time>2011-09-11T13:07:31Z</time>
      </trkpt>
      <trkpt lat="49.34624" lon="0.11251">
        <ele>31.9</ele>
        <time>2011-09-11T13:07:37Z</time>
      </trkpt>
      <trkpt lat="49.34624" lon="0.11265">
        <ele>31.9</ele>
        <time>2011-09-11T13:07:43Z</time>
      </trkpt>
      <trkpt lat="49.34621" lon="0.11275">
        <ele>31.9</ele>
        <time>2011-09-11T13:07:48Z</time>
      </trkpt>
      <trkpt lat="49.34622" lon="0.11296">
        <ele>32.3</ele>
        <time>2011-09-11T13:07:59Z</time>
      </trkpt>
      <trkpt lat="49.34625" lon="0.11307">
        <ele>31.4</ele>
        <time>2011-09-11T13:08:04Z</time>
      </trkpt>
      <trkpt lat="49.3462" lon="0.11323">
        <ele>30.4</ele>
        <time>2011-09-11T13:08:14Z</time>
      </trkpt>
      <trkpt lat="49.34618" lon="0.11329">
        <ele>30.4</ele>
        <time>2011-09-11T13:08:18Z</time>
      </trkpt>
      <trkpt lat="49.34617" lon="0.11335">
        <ele>29.9</ele>
        <time>2011-09-11T13:08:21Z</time>
      </trkpt>
      <trkpt lat="49.34617" lon="0.11344">
        <ele>30.4</ele>
        <time>2011-09-11T13:08:26Z</time>
      </trkpt>
      <trkpt lat="49.34614" lon="0.11362">
        <ele>30.9</ele>
        <time>2011-09-11T13:08:35Z</time>
      </trkpt>
      <trkpt lat="49.34615" lon="0.11367">
        <ele>29.9</ele>
        <time>2011-09-11T13:08:39Z</time>
      </trkpt>
      <trkpt lat="49.34612" lon="0.11396">
        <ele>29</ele>
        <time>2011-09-11T13:08:52Z</time>
      </trkpt>
      <trkpt lat="49.34611" lon="0.11414">
        <ele>29</ele>
        <time>2011-09-11T13:09:01Z</time>
      </trkpt>
      <trkpt lat="49.34612" lon="0.11423">
        <ele>29.5</ele>
        <time>2011-09-11T13:09:06Z</time>
      </trkpt>
      <trkpt lat="49.34609" lon="0.11436">
        <ele>28.5</ele>
        <time>2011-09-11T13:09:14Z</time>
      </trkpt>
      <trkpt lat="49.34612" lon="0.11452">
        <ele>29</ele>
        <time>2011-09-11T13:09:21Z</time>
      </trkpt>
      <trkpt lat="49.34615" lon="0.11471">
        <ele>28</ele>
        <time>2011-09-11T13:09:33Z</time>
      </trkpt>
      <trkpt lat="49.34615" lon="0.11477">
        <ele>28</ele>
        <time>2011-09-11T13:09:36Z</time>
      </trkpt>
      <trkpt lat="49.34617" lon="0.11486">
        <ele>27.5</ele>
        <time>2011-09-11T13:09:40Z</time>
      </trkpt>
      <trkpt lat="49.34617" lon="0.11513">
        <ele>25.6</ele>
        <time>2011-09-11T13:09:54Z</time>
      </trkpt>
      <trkpt lat="49.34616" lon="0.11546">
        <ele>21.3</ele>
        <time>2011-09-11T13:10:11Z</time>
      </trkpt>
      <trkpt lat="49.34614" lon="0.11552">
        <ele>23.2</ele>
        <time>2011-09-11T13:10:30Z</time>
      </trkpt>
      <trkpt lat="49.34619" lon="0.1158">
        <ele>23.7</ele>
        <time>2011-09-11T13:10:46Z</time>
      </trkpt>
      <trkpt lat="49.3462" lon="0.11599">
        <ele>23.2</ele>
        <time>2011-09-11T13:10:56Z</time>
      </trkpt>
      <trkpt lat="49.34619" lon="0.11623">
        <ele>24.2</ele>
        <time>2011-09-11T13:11:08Z</time>
      </trkpt>
      <trkpt lat="49.34624" lon="0.1165">
        <ele>24.2</ele>
        <time>2011-09-11T13:11:24Z</time>
      </trkpt>
      <trkpt lat="49.3463" lon="0.11668">
        <ele>23.7</ele>
        <time>2011-09-11T13:11:35Z</time>
      </trkpt>
      <trkpt lat="49.3464" lon="0.11699">
        <ele>22.2</ele>
        <time>2011-09-11T13:11:51Z</time>
      </trkpt>
      <trkpt lat="49.34647" lon="0.11717">
        <ele>24.2</ele>
        <time>2011-09-11T13:12:03Z</time>
      </trkpt>
      <trkpt lat="49.34648" lon="0.11718">
        <ele>23.7</ele>
        <time>2011-09-11T13:12:04Z</time>
      </trkpt>
      <trkpt lat="49.34654" lon="0.11746">
        <ele>20.3</ele>
        <time>2011-09-11T13:12:20Z</time>
      </trkpt>
      <trkpt lat="49.34661" lon="0.11773">
        <ele>18.4</ele>
        <time>2011-09-11T13:12:36Z</time>
      </trkpt>
      <trkpt lat="49.34673" lon="0.11812">
        <ele>19.4</ele>
        <time>2011-09-11T13:12:58Z</time>
      </trkpt>
      <trkpt lat="49.34677" lon="0.1183">
        <ele>19.4</ele>
        <time>2011-09-11T13:13:07Z</time>
      </trkpt>
      <trkpt lat="49.34683" lon="0.11853">
        <ele>17.4</ele>
        <time>2011-09-11T13:13:20Z</time>
      </trkpt>
      <trkpt lat="49.34695" lon="0.11874">
        <ele>18.4</ele>
        <time>2011-09-11T13:13:35Z</time>
      </trkpt>
      <trkpt lat="49.34698" lon="0.11881">
        <ele>18.4</ele>
        <time>2011-09-11T13:13:38Z</time>
      </trkpt>
      <trkpt lat="49.34709" lon="0.11901">
        <ele>19.8</ele>
        <time>2011-09-11T13:13:49Z</time>
      </trkpt>
      <trkpt lat="49.3471" lon="0.11902">
        <ele>19.8</ele>
        <time>2011-09-11T13:13:50Z</time>
      </trkpt>
      <trkpt lat="49.34723" lon="0.1193">
        <ele>20.3</ele>
        <time>2011-09-11T13:14:08Z</time>
      </trkpt>
      <trkpt lat="49.34724" lon="0.11931">
        <ele>20.3</ele>
        <time>2011-09-11T13:14:09Z</time>
      </trkpt>
      <trkpt lat="49.34726" lon="0.1194">
        <ele>18.4</ele>
        <time>2011-09-11T13:14:20Z</time>
      </trkpt>
      <trkpt lat="49.34728" lon="0.11955">
        <ele>19.8</ele>
        <time>2011-09-11T13:14:36Z</time>
      </trkpt>
      <trkpt lat="49.34731" lon="0.11962">
        <ele>19.4</ele>
        <time>2011-09-11T13:14:43Z</time>
      </trkpt>
      <trkpt lat="49.34735" lon="0.12">
        <ele>17.9</ele>
        <time>2011-09-11T13:15:07Z</time>
      </trkpt>
      <trkpt lat="49.34737" lon="0.12046">
        <ele>16.5</ele>
        <time>2011-09-11T13:15:31Z</time>
      </trkpt>
      <trkpt lat="49.34738" lon="0.12049">
        <ele>16.5</ele>
        <time>2011-09-11T13:15:33Z</time>
      </trkpt>
      <trkpt lat="49.34741" lon="0.1206">
        <ele>17.9</ele>
        <time>2011-09-11T13:15:41Z</time>
      </trkpt>
      <trkpt lat="49.34742" lon="0.12065">
        <ele>19.8</ele>
        <time>2011-09-11T13:15:44Z</time>
      </trkpt>
      <trkpt lat="49.34741" lon="0.12089">
        <ele>27.1</ele>
        <time>2011-09-11T13:16:01Z</time>
      </trkpt>
      <trkpt lat="49.34739" lon="0.12103">
        <ele>29.9</ele>
        <time>2011-09-11T13:16:09Z</time>
      </trkpt>
      <trkpt lat="49.34735" lon="0.12127">
        <ele>30.4</ele>
        <time>2011-09-11T13:16:23Z</time>
      </trkpt>
      <trkpt lat="49.34725" lon="0.12157">
        <ele>30.9</ele>
        <time>2011-09-11T13:16:43Z</time>
      </trkpt>
      <trkpt lat="49.34712" lon="0.12188">
        <ele>30.9</ele>
        <time>2011-09-11T13:17:06Z</time>
      </trkpt>
      <trkpt lat="49.34698" lon="0.12215">
        <ele>32.8</ele>
        <time>2011-09-11T13:17:28Z</time>
      </trkpt>
      <trkpt lat="49.34687" lon="0.12243">
        <ele>34.7</ele>
        <time>2011-09-11T13:17:52Z</time>
      </trkpt>
      <trkpt lat="49.34668" lon="0.12281">
        <ele>36.2</ele>
        <time>2011-09-11T13:18:21Z</time>
      </trkpt>
      <trkpt lat="49.34662" lon="0.12296">
        <ele>36.7</ele>
        <time>2011-09-11T13:18:33Z</time>
      </trkpt>
      <trkpt lat="49.34644" lon="0.12321">
        <ele>39.6</ele>
        <time>2011-09-11T13:18:58Z</time>
      </trkpt>
      <trkpt lat="49.34644" lon="0.1233">
        <ele>41.5</ele>
        <time>2011-09-11T13:19:32Z</time>
      </trkpt>
      <trkpt lat="49.34643" lon="0.1233">
        <ele>42.4</ele>
        <time>2011-09-11T13:20:17Z</time>
      </trkpt>
      <trkpt lat="49.34648" lon="0.1233">
        <ele>42.4</ele>
        <time>2011-09-11T13:20:36Z</time>
      </trkpt>
      <trkpt lat="49.34644" lon="0.1233">
        <ele>42.9</ele>
        <time>2011-09-11T13:21:02Z</time>
      </trkpt>
      <trkpt lat="49.34657" lon="0.1235">
        <ele>43.9</ele>
        <time>2011-09-11T13:22:07Z</time>
      </trkpt>
      <trkpt lat="49.34676" lon="0.12372">
        <ele>45.3</ele>
        <time>2011-09-11T13:22:31Z</time>
      </trkpt>
      <trkpt lat="49.34672" lon="0.12387">
        <ele>48.7</ele>
        <time>2011-09-11T13:22:44Z</time>
      </trkpt>
      <trkpt lat="49.34664" lon="0.12411">
        <ele>50.1</ele>
        <time>2011-09-11T13:23:01Z</time>
      </trkpt>
      <trkpt lat="49.34652" lon="0.12442">
        <ele>54.5</ele>
        <time>2011-09-11T13:23:25Z</time>
      </trkpt>
      <trkpt lat="49.34641" lon="0.12477">
        <ele>57.3</ele>
        <time>2011-09-11T13:23:53Z</time>
      </trkpt>
      <trkpt lat="49.34627" lon="0.12513">
        <ele>60.2</ele>
        <time>2011-09-11T13:24:17Z</time>
      </trkpt>
      <trkpt lat="49.3462" lon="0.12541">
        <ele>60.2</ele>
        <time>2011-09-11T13:24:38Z</time>
      </trkpt>
      <trkpt lat="49.34615" lon="0.12558">
        <ele>60.2</ele>
        <time>2011-09-11T13:24:50Z</time>
      </trkpt>
      <trkpt lat="49.34611" lon="0.1257">
        <ele>60.7</ele>
        <time>2011-09-11T13:24:58Z</time>
      </trkpt>
      <trkpt lat="49.3461" lon="0.12581">
        <ele>59.7</ele>
        <time>2011-09-11T13:25:03Z</time>
      </trkpt>
      <trkpt lat="49.34604" lon="0.12607">
        <ele>57.3</ele>
        <time>2011-09-11T13:25:21Z</time>
      </trkpt>
      <trkpt lat="49.34605" lon="0.12621">
        <ele>55.9</ele>
        <time>2011-09-11T13:25:28Z</time>
      </trkpt>
      <trkpt lat="49.34606" lon="0.12632">
        <ele>57.8</ele>
        <time>2011-09-11T13:25:36Z</time>
      </trkpt>
      <trkpt lat="49.34618" lon="0.12651">
        <ele>58.8</ele>
        <time>2011-09-11T13:25:52Z</time>
      </trkpt>
      <trkpt lat="49.34632" lon="0.12684">
        <ele>58.3</ele>
        <time>2011-09-11T13:26:16Z</time>
      </trkpt>
      <trkpt lat="49.34655" lon="0.12712">
        <ele>57.8</ele>
        <time>2011-09-11T13:26:39Z</time>
      </trkpt>
      <trkpt lat="49.34673" lon="0.12735">
        <ele>60.2</ele>
        <time>2011-09-11T13:26:57Z</time>
      </trkpt>
      <trkpt lat="49.3469" lon="0.1276">
        <ele>65.5</ele>
        <time>2011-09-11T13:27:14Z</time>
      </trkpt>
      <trkpt lat="49.34692" lon="0.12764">
        <ele>66</ele>
        <time>2011-09-11T13:27:17Z</time>
      </trkpt>
      <trkpt lat="49.34695" lon="0.12769">
        <ele>66</ele>
        <time>2011-09-11T13:27:20Z</time>
      </trkpt>
      <trkpt lat="49.34699" lon="0.12787">
        <ele>67.9</ele>
        <time>2011-09-11T13:27:35Z</time>
      </trkpt>
      <trkpt lat="49.34706" lon="0.12812">
        <ele>71.8</ele>
        <time>2011-09-11T13:27:50Z</time>
      </trkpt>
      <trkpt lat="49.34713" lon="0.12835">
        <ele>73.2</ele>
        <time>2011-09-11T13:28:01Z</time>
      </trkpt>
      <trkpt lat="49.34711" lon="0.12848">
        <ele>75.6</ele>
        <time>2011-09-11T13:28:13Z</time>
      </trkpt>
      <trkpt lat="49.347" lon="0.12863">
        <ele>76.6</ele>
        <time>2011-09-11T13:28:23Z</time>
      </trkpt>
      <trkpt lat="49.34699" lon="0.12866">
        <ele>76.1</ele>
        <time>2011-09-11T13:28:26Z</time>
      </trkpt>
      <trkpt lat="49.34696" lon="0.12872">
        <ele>76.6</ele>
        <time>2011-09-11T13:28:31Z</time>
      </trkpt>
      <trkpt lat="49.3469" lon="0.12887">
        <ele>78</ele>
        <time>2011-09-11T13:28:41Z</time>
      </trkpt>
      <trkpt lat="49.34689" lon="0.12914">
        <ele>79.9</ele>
        <time>2011-09-11T13:28:59Z</time>
      </trkpt>
      <trkpt lat="49.34692" lon="0.12954">
        <ele>82.8</ele>
        <time>2011-09-11T13:29:20Z</time>
      </trkpt>
      <trkpt lat="49.34705" lon="0.12983">
        <ele>84.7</ele>
        <time>2011-09-11T13:29:42Z</time>
      </trkpt>
      <trkpt lat="49.34706" lon="0.12984">
        <ele>84.7</ele>
        <time>2011-09-11T13:29:43Z</time>
      </trkpt>
      <trkpt lat="49.3472" lon="0.13002">
        <ele>88.6</ele>
        <time>2011-09-11T13:30:02Z</time>
      </trkpt>
      <trkpt lat="49.34738" lon="0.13022">
        <ele>91</ele>
        <time>2011-09-11T13:30:22Z</time>
      </trkpt>
      <trkpt lat="49.34743" lon="0.13025">
        <ele>89.5</ele>
        <time>2011-09-11T13:30:34Z</time>
      </trkpt>
      <trkpt lat="49.34747" lon="0.13032">
        <ele>90</ele>
        <time>2011-09-11T13:30:51Z</time>
      </trkpt>
      <trkpt lat="49.34758" lon="0.13048">
        <ele>88.1</ele>
        <time>2011-09-11T13:31:09Z</time>
      </trkpt>
      <trkpt lat="49.34774" lon="0.13074">
        <ele>86.2</ele>
        <time>2011-09-11T13:31:29Z</time>
      </trkpt>
      <trkpt lat="49.34784" lon="0.1309">
        <ele>86.2</ele>
        <time>2011-09-11T13:31:42Z</time>
      </trkpt>
      <trkpt lat="49.34803" lon="0.13118">
        <ele>83.3</ele>
        <time>2011-09-11T13:32:00Z</time>
      </trkpt>
      <trkpt lat="49.34813" lon="0.13132">
        <ele>84.7</ele>
        <time>2011-09-11T13:32:13Z</time>
      </trkpt>
      <trkpt lat="49.34827" lon="0.13151">
        <ele>85.7</ele>
        <time>2011-09-11T13:32:30Z</time>
      </trkpt>
      <trkpt lat="49.34827" lon="0.13164">
        <ele>87.6</ele>
        <time>2011-09-11T13:33:00Z</time>
      </trkpt>
      <trkpt lat="49.34839" lon="0.13153">
        <ele>88.1</ele>
        <time>2011-09-11T13:33:23Z</time>
      </trkpt>
      <trkpt lat="49.34856" lon="0.13134">
        <ele>90</ele>
        <time>2011-09-11T13:33:42Z</time>
      </trkpt>
      <trkpt lat="49.34867" lon="0.13112">
        <ele>89.5</ele>
        <time>2011-09-11T13:33:58Z</time>
      </trkpt>
      <trkpt lat="49.34882" lon="0.13099">
        <ele>90.5</ele>
        <time>2011-09-11T13:34:13Z</time>
      </trkpt>
      <trkpt lat="49.34896" lon="0.13076">
        <ele>87.6</ele>
        <time>2011-09-11T13:34:28Z</time>
      </trkpt>
      <trkpt lat="49.34921" lon="0.13065">
        <ele>88.6</ele>
        <time>2011-09-11T13:34:54Z</time>
      </trkpt>
      <trkpt lat="49.34946" lon="0.13056">
        <ele>85.7</ele>
        <time>2011-09-11T13:35:13Z</time>
      </trkpt>
      <trkpt lat="49.34961" lon="0.13066">
        <ele>82.8</ele>
        <time>2011-09-11T13:35:26Z</time>
      </trkpt>
      <trkpt lat="49.34964" lon="0.1307">
        <ele>81.8</ele>
        <time>2011-09-11T13:35:31Z</time>
      </trkpt>
      <trkpt lat="49.3498" lon="0.13079">
        <ele>78.5</ele>
        <time>2011-09-11T13:35:48Z</time>
      </trkpt>
      <trkpt lat="49.34999" lon="0.13085">
        <ele>74.6</ele>
        <time>2011-09-11T13:36:08Z</time>
      </trkpt>
      <trkpt lat="49.35009" lon="0.1309">
        <ele>70.8</ele>
        <time>2011-09-11T13:36:21Z</time>
      </trkpt>
      <trkpt lat="49.35021" lon="0.13094">
        <ele>71.3</ele>
        <time>2011-09-11T13:36:34Z</time>
      </trkpt>
      <trkpt lat="49.35029" lon="0.13094">
        <ele>75.6</ele>
        <time>2011-09-11T13:36:51Z</time>
      </trkpt>
      <trkpt lat="49.35032" lon="0.13099">
        <ele>78.5</ele>
        <time>2011-09-11T13:37:21Z</time>
      </trkpt>
      <trkpt lat="49.3504" lon="0.13103">
        <ele>82.3</ele>
        <time>2011-09-11T13:38:40Z</time>
      </trkpt>
      <trkpt lat="49.3505" lon="0.13125">
        <ele>85.7</ele>
        <time>2011-09-11T13:39:05Z</time>
      </trkpt>
      <trkpt lat="49.35066" lon="0.13149">
        <ele>89.1</ele>
        <time>2011-09-11T13:39:46Z</time>
      </trkpt>
      <trkpt lat="49.35057" lon="0.13153">
        <ele>90</ele>
        <time>2011-09-11T13:40:05Z</time>
      </trkpt>
      <trkpt lat="49.35047" lon="0.13183">
        <ele>90.5</ele>
        <time>2011-09-11T13:40:44Z</time>
      </trkpt>
      <trkpt lat="49.35031" lon="0.13231">
        <ele>91.5</ele>
        <time>2011-09-11T13:41:32Z</time>
      </trkpt>
      <trkpt lat="49.35013" lon="0.13272">
        <ele>92.4</ele>
        <time>2011-09-11T13:42:11Z</time>
      </trkpt>
      <trkpt lat="49.34992" lon="0.13326">
        <ele>91.9</ele>
        <time>2011-09-11T13:42:51Z</time>
      </trkpt>
      <trkpt lat="49.34977" lon="0.13366">
        <ele>91.9</ele>
        <time>2011-09-11T13:43:33Z</time>
      </trkpt>
      <trkpt lat="49.34959" lon="0.13392">
        <ele>91</ele>
        <time>2011-09-11T13:44:07Z</time>
      </trkpt>
      <trkpt lat="49.34959" lon="0.13411">
        <ele>91.5</ele>
        <time>2011-09-11T13:44:24Z</time>
      </trkpt>
      <trkpt lat="49.34951" lon="0.13428">
        <ele>92.9</ele>
        <time>2011-09-11T13:44:40Z</time>
      </trkpt>
      <trkpt lat="49.34937" lon="0.13454">
        <ele>94.3</ele>
        <time>2011-09-11T13:44:58Z</time>
      </trkpt>
      <trkpt lat="49.34932" lon="0.1348">
        <ele>96.7</ele>
        <time>2011-09-11T13:45:18Z</time>
      </trkpt>
      <trkpt lat="49.34921" lon="0.135">
        <ele>97.7</ele>
        <time>2011-09-11T13:45:37Z</time>
      </trkpt>
      <trkpt lat="49.34905" lon="0.13525">
        <ele>98.2</ele>
        <time>2011-09-11T13:46:01Z</time>
      </trkpt>
      <trkpt lat="49.34894" lon="0.1356">
        <ele>98.7</ele>
        <time>2011-09-11T13:46:28Z</time>
      </trkpt>
      <trkpt lat="49.34884" lon="0.13586">
        <ele>99.2</ele>
        <time>2011-09-11T13:46:47Z</time>
      </trkpt>
      <trkpt lat="49.34872" lon="0.13608">
        <ele>99.6</ele>
        <time>2011-09-11T13:47:08Z</time>
      </trkpt>
      <trkpt lat="49.3487" lon="0.13625">
        <ele>102</ele>
        <time>2011-09-11T13:47:26Z</time>
      </trkpt>
      <trkpt lat="49.34859" lon="0.13641">
        <ele>103</ele>
        <time>2011-09-11T13:47:44Z</time>
      </trkpt>
      <trkpt lat="49.34854" lon="0.13662">
        <ele>104.4</ele>
        <time>2011-09-11T13:48:01Z</time>
      </trkpt>
      <trkpt lat="49.34841" lon="0.13686">
        <ele>106.4</ele>
        <time>2011-09-11T13:48:28Z</time>
      </trkpt>
      <trkpt lat="49.34832" lon="0.13708">
        <ele>109.7</ele>
        <time>2011-09-11T13:48:51Z</time>
      </trkpt>
      <trkpt lat="49.34825" lon="0.13716">
        <ele>112.1</ele>
        <time>2011-09-11T13:49:03Z</time>
      </trkpt>
      <trkpt lat="49.34819" lon="0.13737">
        <ele>115</ele>
        <time>2011-09-11T13:49:18Z</time>
      </trkpt>
      <trkpt lat="49.34819" lon="0.13751">
        <ele>115</ele>
        <time>2011-09-11T13:49:30Z</time>
      </trkpt>
      <trkpt lat="49.34806" lon="0.1377">
        <ele>117.9</ele>
        <time>2011-09-11T13:49:45Z</time>
      </trkpt>
      <trkpt lat="49.34802" lon="0.13793">
        <ele>119.8</ele>
        <time>2011-09-11T13:50:03Z</time>
      </trkpt>
      <trkpt lat="49.34796" lon="0.13812">
        <ele>123.2</ele>
        <time>2011-09-11T13:50:20Z</time>
      </trkpt>
      <trkpt lat="49.34787" lon="0.13826">
        <ele>124.1</ele>
        <time>2011-09-11T13:50:35Z</time>
      </trkpt>
      <trkpt lat="49.34775" lon="0.1384">
        <ele>124.1</ele>
        <time>2011-09-11T13:50:48Z</time>
      </trkpt>
      <trkpt lat="49.34766" lon="0.13866">
        <ele>124.6</ele>
        <time>2011-09-11T13:51:07Z</time>
      </trkpt>
      <trkpt lat="49.34752" lon="0.13874">
        <ele>124.6</ele>
        <time>2011-09-11T13:51:23Z</time>
      </trkpt>
      <trkpt lat="49.34749" lon="0.13875">
        <ele>124.6</ele>
        <time>2011-09-11T13:51:26Z</time>
      </trkpt>
      <trkpt lat="49.3474" lon="0.13882">
        <ele>125.1</ele>
        <time>2011-09-11T13:51:40Z</time>
      </trkpt>
      <trkpt lat="49.34722" lon="0.13889">
        <ele>124.1</ele>
        <time>2011-09-11T13:51:57Z</time>
      </trkpt>
      <trkpt lat="49.34712" lon="0.13885">
        <ele>123.7</ele>
        <time>2011-09-11T13:52:02Z</time>
      </trkpt>
      <trkpt lat="49.347" lon="0.13888">
        <ele>124.6</ele>
        <time>2011-09-11T13:52:14Z</time>
      </trkpt>
      <trkpt lat="49.34686" lon="0.13888">
        <ele>124.1</ele>
        <time>2011-09-11T13:52:35Z</time>
      </trkpt>
      <trkpt lat="49.34671" lon="0.13886">
        <ele>124.6</ele>
        <time>2011-09-11T13:52:54Z</time>
      </trkpt>
      <trkpt lat="49.34657" lon="0.13892">
        <ele>128.5</ele>
        <time>2011-09-11T13:53:08Z</time>
      </trkpt>
      <trkpt lat="49.3463" lon="0.13891">
        <ele>129</ele>
        <time>2011-09-11T13:53:32Z</time>
      </trkpt>
      <trkpt lat="49.34611" lon="0.13892">
        <ele>129</ele>
        <time>2011-09-11T13:53:56Z</time>
      </trkpt>
      <trkpt lat="49.34589" lon="0.13895">
        <ele>128.5</ele>
        <time>2011-09-11T13:54:16Z</time>
      </trkpt>
      <trkpt lat="49.34586" lon="0.13896">
        <ele>128.5</ele>
        <time>2011-09-11T13:54:18Z</time>
      </trkpt>
      <trkpt lat="49.34574" lon="0.13895">
        <ele>128.5</ele>
        <time>2011-09-11T13:54:33Z</time>
      </trkpt>
      <trkpt lat="49.34566" lon="0.13894">
        <ele>128.5</ele>
        <time>2011-09-11T13:54:42Z</time>
      </trkpt>
      <trkpt lat="49.34548" lon="0.13891">
        <ele>127.5</ele>
        <time>2011-09-11T13:54:56Z</time>
      </trkpt>
      <trkpt lat="49.3454" lon="0.13886">
        <ele>127.5</ele>
        <time>2011-09-11T13:55:02Z</time>
      </trkpt>
      <trkpt lat="49.34521" lon="0.13878">
        <ele>125.1</ele>
        <time>2011-09-11T13:55:24Z</time>
      </trkpt>
      <trkpt lat="49.3451" lon="0.13853">
        <ele>122.7</ele>
        <time>2011-09-11T13:55:44Z</time>
      </trkpt>
      <trkpt lat="49.34492" lon="0.13844">
        <ele>120.8</ele>
        <time>2011-09-11T13:56:05Z</time>
      </trkpt>
      <trkpt lat="49.34476" lon="0.13842">
        <ele>121.7</ele>
        <time>2011-09-11T13:56:12Z</time>
      </trkpt>
      <trkpt lat="49.34464" lon="0.13833">
        <ele>120.3</ele>
        <time>2011-09-11T13:56:28Z</time>
      </trkpt>
      <trkpt lat="49.34463" lon="0.13832">
        <ele>119.8</ele>
        <time>2011-09-11T13:56:29Z</time>
      </trkpt>
      <trkpt lat="49.34447" lon="0.13825">
        <ele>118.9</ele>
        <time>2011-09-11T13:56:44Z</time>
      </trkpt>
      <trkpt lat="49.34429" lon="0.13817">
        <ele>118.4</ele>
        <time>2011-09-11T13:57:05Z</time>
      </trkpt>
      <trkpt lat="49.34417" lon="0.1381">
        <ele>118.9</ele>
        <time>2011-09-11T13:57:21Z</time>
      </trkpt>
      <trkpt lat="49.34411" lon="0.1381">
        <ele>118.9</ele>
        <time>2011-09-11T13:57:27Z</time>
      </trkpt>
      <trkpt lat="49.34399" lon="0.13812">
        <ele>118.9</ele>
        <time>2011-09-11T13:57:38Z</time>
      </trkpt>
      <trkpt lat="49.34382" lon="0.13798">
        <ele>119.3</ele>
        <time>2011-09-11T13:57:53Z</time>
      </trkpt>
      <trkpt lat="49.34363" lon="0.13786">
        <ele>119.8</ele>
        <time>2011-09-11T13:58:11Z</time>
      </trkpt>
      <trkpt lat="49.34345" lon="0.13782">
        <ele>121.7</ele>
        <time>2011-09-11T13:58:31Z</time>
      </trkpt>
      <trkpt lat="49.34338" lon="0.13778">
        <ele>121.3</ele>
        <time>2011-09-11T13:58:37Z</time>
      </trkpt>
      <trkpt lat="49.3432" lon="0.13767">
        <ele>120.8</ele>
        <time>2011-09-11T13:58:50Z</time>
      </trkpt>
      <trkpt lat="49.34312" lon="0.13762">
        <ele>120.3</ele>
        <time>2011-09-11T13:59:01Z</time>
      </trkpt>
      <trkpt lat="49.34303" lon="0.13767">
        <ele>120.3</ele>
        <time>2011-09-11T13:59:31Z</time>
      </trkpt>
      <trkpt lat="49.34297" lon="0.13791">
        <ele>125.1</ele>
        <time>2011-09-11T13:59:53Z</time>
      </trkpt>
      <trkpt lat="49.34284" lon="0.13793">
        <ele>124.6</ele>
        <time>2011-09-11T14:00:11Z</time>
      </trkpt>
      <trkpt lat="49.34286" lon="0.13801">
        <ele>124.6</ele>
        <time>2011-09-11T14:00:33Z</time>
      </trkpt>
      <trkpt lat="49.34291" lon="0.13802">
        <ele>124.6</ele>
        <time>2011-09-11T14:00:54Z</time>
      </trkpt>
      <trkpt lat="49.34283" lon="0.13802">
        <ele>124.6</ele>
        <time>2011-09-11T14:01:17Z</time>
      </trkpt>
      <trkpt lat="49.34287" lon="0.13787">
        <ele>124.1</ele>
        <time>2011-09-11T14:01:59Z</time>
      </trkpt>
      <trkpt lat="49.34286" lon="0.13815">
        <ele>125.6</ele>
        <time>2011-09-11T14:02:54Z</time>
      </trkpt>
      <trkpt lat="49.34276" lon="0.13838">
        <ele>130.4</ele>
        <time>2011-09-11T14:03:08Z</time>
      </trkpt>
      <trkpt lat="49.34268" lon="0.13861">
        <ele>134.7</ele>
        <time>2011-09-11T14:03:34Z</time>
      </trkpt>
      <trkpt lat="49.34252" lon="0.13874">
        <ele>136.6</ele>
        <time>2011-09-11T14:04:08Z</time>
      </trkpt>
      <trkpt lat="49.34249" lon="0.13888">
        <ele>138.1</ele>
        <time>2011-09-11T14:04:38Z</time>
      </trkpt>
      <trkpt lat="49.34247" lon="0.13903">
        <ele>137.6</ele>
        <time>2011-09-11T14:04:51Z</time>
      </trkpt>
      <trkpt lat="49.3423" lon="0.13937">
        <ele>138.6</ele>
        <time>2011-09-11T14:05:16Z</time>
      </trkpt>
      <trkpt lat="49.34208" lon="0.13962">
        <ele>136.2</ele>
        <time>2011-09-11T14:05:45Z</time>
      </trkpt>
      <trkpt lat="49.34202" lon="0.13967">
        <ele>134.2</ele>
        <time>2011-09-11T14:06:10Z</time>
      </trkpt>
      <trkpt lat="49.34202" lon="0.13971">
        <ele>133.3</ele>
        <time>2011-09-11T14:06:14Z</time>
      </trkpt>
      <trkpt lat="49.34209" lon="0.13992">
        <ele>131.4</ele>
        <time>2011-09-11T14:06:29Z</time>
      </trkpt>
      <trkpt lat="49.34207" lon="0.14015">
        <ele>129.4</ele>
        <time>2011-09-11T14:06:51Z</time>
      </trkpt>
      <trkpt lat="49.34221" lon="0.14039">
        <ele>128</ele>
        <time>2011-09-11T14:07:05Z</time>
      </trkpt>
      <trkpt lat="49.34231" lon="0.14058">
        <ele>126.6</ele>
        <time>2011-09-11T14:07:17Z</time>
      </trkpt>
      <trkpt lat="49.34245" lon="0.14084">
        <ele>124.6</ele>
        <time>2011-09-11T14:07:33Z</time>
      </trkpt>
      <trkpt lat="49.34252" lon="0.14096">
        <ele>124.1</ele>
        <time>2011-09-11T14:07:40Z</time>
      </trkpt>
      <trkpt lat="49.34256" lon="0.14122">
        <ele>122.7</ele>
        <time>2011-09-11T14:07:55Z</time>
      </trkpt>
      <trkpt lat="49.34264" lon="0.14135">
        <ele>122.2</ele>
        <time>2011-09-11T14:08:07Z</time>
      </trkpt>
      <trkpt lat="49.34259" lon="0.14147">
        <ele>123.7</ele>
        <time>2011-09-11T14:08:15Z</time>
      </trkpt>
      <trkpt lat="49.34253" lon="0.14173">
        <ele>124.6</ele>
        <time>2011-09-11T14:08:38Z</time>
      </trkpt>
      <trkpt lat="49.34253" lon="0.14177">
        <ele>124.6</ele>
        <time>2011-09-11T14:08:40Z</time>
      </trkpt>
      <trkpt lat="49.34246" lon="0.14211">
        <ele>126.1</ele>
        <time>2011-09-11T14:09:04Z</time>
      </trkpt>
      <trkpt lat="49.3423" lon="0.14255">
        <ele>127.5</ele>
        <time>2011-09-11T14:09:28Z</time>
      </trkpt>
      <trkpt lat="49.34221" lon="0.14276">
        <ele>127.5</ele>
        <time>2011-09-11T14:09:54Z</time>
      </trkpt>
      <trkpt lat="49.34205" lon="0.14313">
        <ele>127.5</ele>
        <time>2011-09-11T14:10:28Z</time>
      </trkpt>
      <trkpt lat="49.34204" lon="0.1434">
        <ele>129.4</ele>
        <time>2011-09-11T14:10:45Z</time>
      </trkpt>
      <trkpt lat="49.34192" lon="0.14373">
        <ele>129.4</ele>
        <time>2011-09-11T14:11:11Z</time>
      </trkpt>
      <trkpt lat="49.34182" lon="0.14399">
        <ele>129.9</ele>
        <time>2011-09-11T14:11:29Z</time>
      </trkpt>
      <trkpt lat="49.34151" lon="0.14435">
        <ele>131.4</ele>
        <time>2011-09-11T14:11:50Z</time>
      </trkpt>
      <trkpt lat="49.34126" lon="0.14462">
        <ele>133.3</ele>
        <time>2011-09-11T14:12:23Z</time>
      </trkpt>
      <trkpt lat="49.34099" lon="0.14477">
        <ele>133.3</ele>
        <time>2011-09-11T14:12:45Z</time>
      </trkpt>
      <trkpt lat="49.34068" lon="0.14499">
        <ele>132.8</ele>
        <time>2011-09-11T14:13:10Z</time>
      </trkpt>
      <trkpt lat="49.34044" lon="0.14521">
        <ele>132.8</ele>
        <time>2011-09-11T14:13:33Z</time>
      </trkpt>
      <trkpt lat="49.34018" lon="0.14536">
        <ele>133.3</ele>
        <time>2011-09-11T14:13:58Z</time>
      </trkpt>
      <trkpt lat="49.34009" lon="0.14546">
        <ele>134.7</ele>
        <time>2011-09-11T14:14:08Z</time>
      </trkpt>
      <trkpt lat="49.34003" lon="0.14553">
        <ele>134.7</ele>
        <time>2011-09-11T14:14:14Z</time>
      </trkpt>
      <trkpt lat="49.33999" lon="0.14555">
        <ele>135.2</ele>
        <time>2011-09-11T14:14:17Z</time>
      </trkpt>
      <trkpt lat="49.33991" lon="0.14564">
        <ele>134.2</ele>
        <time>2011-09-11T14:14:22Z</time>
      </trkpt>
      <trkpt lat="49.33986" lon="0.14581">
        <ele>134.2</ele>
        <time>2011-09-11T14:14:37Z</time>
      </trkpt>
      <trkpt lat="49.33969" lon="0.14609">
        <ele>131.4</ele>
        <time>2011-09-11T14:15:05Z</time>
      </trkpt>
      <trkpt lat="49.33954" lon="0.14645">
        <ele>128</ele>
        <time>2011-09-11T14:15:26Z</time>
      </trkpt>
      <trkpt lat="49.33946" lon="0.14657">
        <ele>125.1</ele>
        <time>2011-09-11T14:15:34Z</time>
      </trkpt>
      <trkpt lat="49.33921" lon="0.14697">
        <ele>118.4</ele>
        <time>2011-09-11T14:16:05Z</time>
      </trkpt>
      <trkpt lat="49.33911" lon="0.1471">
        <ele>114.5</ele>
        <time>2011-09-11T14:16:18Z</time>
      </trkpt>
      <trkpt lat="49.33896" lon="0.1471">
        <ele>112.6</ele>
        <time>2011-09-11T14:16:32Z</time>
      </trkpt>
      <trkpt lat="49.33873" lon="0.14721">
        <ele>111.7</ele>
        <time>2011-09-11T14:16:52Z</time>
      </trkpt>
      <trkpt lat="49.33852" lon="0.1473">
        <ele>110.2</ele>
        <time>2011-09-11T14:17:22Z</time>
      </trkpt>
      <trkpt lat="49.33839" lon="0.14734">
        <ele>108.8</ele>
        <time>2011-09-11T14:17:37Z</time>
      </trkpt>
      <trkpt lat="49.33818" lon="0.14742">
        <ele>106.8</ele>
        <time>2011-09-11T14:17:58Z</time>
      </trkpt>
      <trkpt lat="49.33799" lon="0.14749">
        <ele>105.4</ele>
        <time>2011-09-11T14:18:18Z</time>
      </trkpt>
      <trkpt lat="49.33787" lon="0.14752">
        <ele>104.4</ele>
        <time>2011-09-11T14:18:25Z</time>
      </trkpt>
      <trkpt lat="49.33783" lon="0.14754">
        <ele>100.6</ele>
        <time>2011-09-11T14:18:31Z</time>
      </trkpt>
      <trkpt lat="49.33772" lon="0.1477">
        <ele>95.8</ele>
        <time>2011-09-11T14:18:41Z</time>
      </trkpt>
      <trkpt lat="49.33774" lon="0.14791">
        <ele>86.7</ele>
        <time>2011-09-11T14:18:57Z</time>
      </trkpt>
      <trkpt lat="49.33776" lon="0.14791">
        <ele>86.2</ele>
        <time>2011-09-11T14:18:58Z</time>
      </trkpt>
      <trkpt lat="49.33778" lon="0.14801">
        <ele>86.2</ele>
        <time>2011-09-11T14:19:02Z</time>
      </trkpt>
      <trkpt lat="49.33781" lon="0.1482">
        <ele>80.4</ele>
        <time>2011-09-11T14:19:13Z</time>
      </trkpt>
      <trkpt lat="49.33778" lon="0.14826">
        <ele>79.9</ele>
        <time>2011-09-11T14:19:17Z</time>
      </trkpt>
      <trkpt lat="49.33776" lon="0.1483">
        <ele>80.4</ele>
        <time>2011-09-11T14:19:19Z</time>
      </trkpt>
      <trkpt lat="49.33773" lon="0.14831">
        <ele>79.4</ele>
        <time>2011-09-11T14:19:22Z</time>
      </trkpt>
      <trkpt lat="49.33755" lon="0.14839">
        <ele>77.5</ele>
        <time>2011-09-11T14:19:36Z</time>
      </trkpt>
      <trkpt lat="49.33751" lon="0.1484">
        <ele>77</ele>
        <time>2011-09-11T14:19:41Z</time>
      </trkpt>
      <trkpt lat="49.33743" lon="0.14845">
        <ele>73.7</ele>
        <time>2011-09-11T14:19:53Z</time>
      </trkpt>
      <trkpt lat="49.33724" lon="0.14846">
        <ele>73.7</ele>
        <time>2011-09-11T14:20:08Z</time>
      </trkpt>
      <trkpt lat="49.3372" lon="0.14845">
        <ele>73.7</ele>
        <time>2011-09-11T14:20:12Z</time>
      </trkpt>
      <trkpt lat="49.33708" lon="0.14851">
        <ele>72.7</ele>
        <time>2011-09-11T14:20:24Z</time>
      </trkpt>
      <trkpt lat="49.33698" lon="0.14853">
        <ele>71.8</ele>
        <time>2011-09-11T14:20:32Z</time>
      </trkpt>
      <trkpt lat="49.33688" lon="0.1486">
        <ele>70.8</ele>
        <time>2011-09-11T14:20:45Z</time>
      </trkpt>
      <trkpt lat="49.33676" lon="0.14868">
        <ele>70.8</ele>
        <time>2011-09-11T14:21:01Z</time>
      </trkpt>
      <trkpt lat="49.33656" lon="0.14872">
        <ele>70.3</ele>
        <time>2011-09-11T14:21:13Z</time>
      </trkpt>
      <trkpt lat="49.33631" lon="0.14876">
        <ele>69.8</ele>
        <time>2011-09-11T14:21:29Z</time>
      </trkpt>
      <trkpt lat="49.33619" lon="0.14882">
        <ele>69.4</ele>
        <time>2011-09-11T14:21:39Z</time>
      </trkpt>
      <trkpt lat="49.33604" lon="0.14884">
        <ele>67.4</ele>
        <time>2011-09-11T14:21:54Z</time>
      </trkpt>
      <trkpt lat="49.3359" lon="0.14891">
        <ele>66.5</ele>
        <time>2011-09-11T14:22:06Z</time>
      </trkpt>
      <trkpt lat="49.33586" lon="0.14892">
        <ele>66</ele>
        <time>2011-09-11T14:22:08Z</time>
      </trkpt>
      <trkpt lat="49.33576" lon="0.14898">
        <ele>63.6</ele>
        <time>2011-09-11T14:22:20Z</time>
      </trkpt>
      <trkpt lat="49.33572" lon="0.14899">
        <ele>63.1</ele>
        <time>2011-09-11T14:22:24Z</time>
      </trkpt>
      <trkpt lat="49.33557" lon="0.14903">
        <ele>61.2</ele>
        <time>2011-09-11T14:22:38Z</time>
      </trkpt>
      <trkpt lat="49.33543" lon="0.14894">
        <ele>58.8</ele>
        <time>2011-09-11T14:22:51Z</time>
      </trkpt>
      <trkpt lat="49.33538" lon="0.14891">
        <ele>57.8</ele>
        <time>2011-09-11T14:22:55Z</time>
      </trkpt>
      <trkpt lat="49.33531" lon="0.14881">
        <ele>55.9</ele>
        <time>2011-09-11T14:23:05Z</time>
      </trkpt>
      <trkpt lat="49.33517" lon="0.1487">
        <ele>54</ele>
        <time>2011-09-11T14:23:16Z</time>
      </trkpt>
      <trkpt lat="49.33504" lon="0.14863">
        <ele>52</ele>
        <time>2011-09-11T14:23:29Z</time>
      </trkpt>
      <trkpt lat="49.33487" lon="0.14859">
        <ele>49.6</ele>
        <time>2011-09-11T14:23:43Z</time>
      </trkpt>
      <trkpt lat="49.33471" lon="0.14848">
        <ele>48.2</ele>
        <time>2011-09-11T14:23:54Z</time>
      </trkpt>
      <trkpt lat="49.33466" lon="0.14843">
        <ele>47.7</ele>
        <time>2011-09-11T14:23:58Z</time>
      </trkpt>
      <trkpt lat="49.33463" lon="0.14841">
        <ele>46.8</ele>
        <time>2011-09-11T14:24:02Z</time>
      </trkpt>
      <trkpt lat="49.33463" lon="0.14836">
        <ele>46.3</ele>
        <time>2011-09-11T14:24:05Z</time>
      </trkpt>
      <trkpt lat="49.33458" lon="0.14834">
        <ele>44.8</ele>
        <time>2011-09-11T14:24:10Z</time>
      </trkpt>
      <trkpt lat="49.33455" lon="0.14834">
        <ele>44.8</ele>
        <time>2011-09-11T14:24:12Z</time>
      </trkpt>
      <trkpt lat="49.33455" lon="0.14833">
        <ele>44.4</ele>
        <time>2011-09-11T14:24:14Z</time>
      </trkpt>
      <trkpt lat="49.33445" lon="0.14818">
        <ele>42</ele>
        <time>2011-09-11T14:24:26Z</time>
      </trkpt>
      <trkpt lat="49.33436" lon="0.14809">
        <ele>42</ele>
        <time>2011-09-11T14:24:34Z</time>
      </trkpt>
      <trkpt lat="49.33433" lon="0.148">
        <ele>42</ele>
        <time>2011-09-11T14:24:38Z</time>
      </trkpt>
      <trkpt lat="49.33428" lon="0.14783">
        <ele>39.6</ele>
        <time>2011-09-11T14:24:51Z</time>
      </trkpt>
      <trkpt lat="49.33422" lon="0.14766">
        <ele>35.7</ele>
        <time>2011-09-11T14:25:02Z</time>
      </trkpt>
      <trkpt lat="49.33397" lon="0.14726">
        <ele>35.7</ele>
        <time>2011-09-11T14:25:28Z</time>
      </trkpt>
      <trkpt lat="49.33378" lon="0.14688">
        <ele>34.3</ele>
        <time>2011-09-11T14:25:52Z</time>
      </trkpt>
      <trkpt lat="49.33361" lon="0.14652">
        <ele>29.9</ele>
        <time>2011-09-11T14:26:15Z</time>
      </trkpt>
      <trkpt lat="49.33348" lon="0.14619">
        <ele>28.5</ele>
        <time>2011-09-11T14:26:37Z</time>
      </trkpt>
      <trkpt lat="49.33327" lon="0.14586">
        <ele>27.1</ele>
        <time>2011-09-11T14:27:03Z</time>
      </trkpt>
      <trkpt lat="49.33316" lon="0.14564">
        <ele>26.6</ele>
        <time>2011-09-11T14:27:21Z</time>
      </trkpt>
      <trkpt lat="49.33315" lon="0.1456">
        <ele>26.6</ele>
        <time>2011-09-11T14:27:23Z</time>
      </trkpt>
      <trkpt lat="49.33312" lon="0.14558">
        <ele>26.6</ele>
        <time>2011-09-11T14:27:26Z</time>
      </trkpt>
      <trkpt lat="49.33309" lon="0.14544">
        <ele>27.5</ele>
        <time>2011-09-11T14:27:39Z</time>
      </trkpt>
      <trkpt lat="49.3331" lon="0.1454">
        <ele>27.5</ele>
        <time>2011-09-11T14:27:42Z</time>
      </trkpt>
      <trkpt lat="49.33308" lon="0.14536">
        <ele>27.5</ele>
        <time>2011-09-11T14:27:45Z</time>
      </trkpt>
      <trkpt lat="49.33305" lon="0.14532">
        <ele>27.1</ele>
        <time>2011-09-11T14:27:48Z</time>
      </trkpt>
      <trkpt lat="49.33305" lon="0.14526">
        <ele>27.1</ele>
        <time>2011-09-11T14:27:51Z</time>
      </trkpt>
      <trkpt lat="49.33304" lon="0.14521">
        <ele>27.1</ele>
        <time>2011-09-11T14:27:53Z</time>
      </trkpt>
      <trkpt lat="49.33304" lon="0.14507">
        <ele>27.5</ele>
        <time>2011-09-11T14:27:58Z</time>
      </trkpt>
      <trkpt lat="49.33304" lon="0.14497">
        <ele>27.5</ele>
        <time>2011-09-11T14:28:03Z</time>
      </trkpt>
      <trkpt lat="49.33302" lon="0.1449">
        <ele>29</ele>
        <time>2011-09-11T14:28:08Z</time>
      </trkpt>
      <trkpt lat="49.33305" lon="0.14477">
        <ele>27.5</ele>
        <time>2011-09-11T14:28:17Z</time>
      </trkpt>
      <trkpt lat="49.33304" lon="0.14439">
        <ele>27.5</ele>
        <time>2011-09-11T14:28:33Z</time>
      </trkpt>
      <trkpt lat="49.33305" lon="0.14433">
        <ele>27.5</ele>
        <time>2011-09-11T14:28:36Z</time>
      </trkpt>
      <trkpt lat="49.33297" lon="0.14404">
        <ele>26.6</ele>
        <time>2011-09-11T14:28:49Z</time>
      </trkpt>
      <trkpt lat="49.33294" lon="0.14398">
        <ele>28</ele>
        <time>2011-09-11T14:28:55Z</time>
      </trkpt>
      <trkpt lat="49.33281" lon="0.14379">
        <ele>28.5</ele>
        <time>2011-09-11T14:29:08Z</time>
      </trkpt>
      <trkpt lat="49.33267" lon="0.14364">
        <ele>30.4</ele>
        <time>2011-09-11T14:29:24Z</time>
      </trkpt>
      <trkpt lat="49.33256" lon="0.14349">
        <ele>33.3</ele>
        <time>2011-09-11T14:29:36Z</time>
      </trkpt>
      <trkpt lat="49.33254" lon="0.14345">
        <ele>33.8</ele>
        <time>2011-09-11T14:29:40Z</time>
      </trkpt>
      <trkpt lat="49.33248" lon="0.14329">
        <ele>35.2</ele>
        <time>2011-09-11T14:29:50Z</time>
      </trkpt>
      <trkpt lat="49.33247" lon="0.14322">
        <ele>35.7</ele>
        <time>2011-09-11T14:29:55Z</time>
      </trkpt>
      <trkpt lat="49.33243" lon="0.14317">
        <ele>37.6</ele>
        <time>2011-09-11T14:29:59Z</time>
      </trkpt>
      <trkpt lat="49.33234" lon="0.14303">
        <ele>41</ele>
        <time>2011-09-11T14:30:09Z</time>
      </trkpt>
      <trkpt lat="49.33224" lon="0.14283">
        <ele>45.3</ele>
        <time>2011-09-11T14:30:24Z</time>
      </trkpt>
      <trkpt lat="49.33215" lon="0.14258">
        <ele>48.7</ele>
        <time>2011-09-11T14:30:39Z</time>
      </trkpt>
      <trkpt lat="49.33213" lon="0.14243">
        <ele>50.6</ele>
        <time>2011-09-11T14:30:50Z</time>
      </trkpt>
      <trkpt lat="49.33205" lon="0.14215">
        <ele>41</ele>
        <time>2011-09-11T14:31:06Z</time>
      </trkpt>
      <trkpt lat="49.33194" lon="0.14175">
        <ele>39.1</ele>
        <time>2011-09-11T14:31:30Z</time>
      </trkpt>
      <trkpt lat="49.33191" lon="0.14166">
        <ele>38.1</ele>
        <time>2011-09-11T14:31:47Z</time>
      </trkpt>
      <trkpt lat="49.33191" lon="0.14163">
        <ele>38.1</ele>
        <time>2011-09-11T14:31:49Z</time>
      </trkpt>
      <trkpt lat="49.33178" lon="0.14122">
        <ele>37.6</ele>
        <time>2011-09-11T14:32:16Z</time>
      </trkpt>
      <trkpt lat="49.33162" lon="0.14091">
        <ele>36.7</ele>
        <time>2011-09-11T14:32:38Z</time>
      </trkpt>
      <trkpt lat="49.33149" lon="0.14076">
        <ele>34.7</ele>
        <time>2011-09-11T14:32:53Z</time>
      </trkpt>
      <trkpt lat="49.33133" lon="0.14044">
        <ele>29.9</ele>
        <time>2011-09-11T14:33:17Z</time>
      </trkpt>
      <trkpt lat="49.33126" lon="0.14021">
        <ele>28.5</ele>
        <time>2011-09-11T14:33:34Z</time>
      </trkpt>
      <trkpt lat="49.33123" lon="0.14014">
        <ele>29.5</ele>
        <time>2011-09-11T14:33:38Z</time>
      </trkpt>
      <trkpt lat="49.33122" lon="0.1401">
        <ele>29.5</ele>
        <time>2011-09-11T14:33:40Z</time>
      </trkpt>
      <trkpt lat="49.33119" lon="0.14008">
        <ele>29.9</ele>
        <time>2011-09-11T14:33:42Z</time>
      </trkpt>
      <trkpt lat="49.33107" lon="0.13999">
        <ele>30.4</ele>
        <time>2011-09-11T14:33:51Z</time>
      </trkpt>
      <trkpt lat="49.33102" lon="0.13993">
        <ele>29.9</ele>
        <time>2011-09-11T14:33:55Z</time>
      </trkpt>
      <trkpt lat="49.33092" lon="0.13981">
        <ele>29.9</ele>
        <time>2011-09-11T14:34:03Z</time>
      </trkpt>
      <trkpt lat="49.33089" lon="0.13975">
        <ele>29</ele>
        <time>2011-09-11T14:34:07Z</time>
      </trkpt>
      <trkpt lat="49.33086" lon="0.13967">
        <ele>27.5</ele>
        <time>2011-09-11T14:34:12Z</time>
      </trkpt>
      <trkpt lat="49.33085" lon="0.13964">
        <ele>27.5</ele>
        <time>2011-09-11T14:34:14Z</time>
      </trkpt>
      <trkpt lat="49.33078" lon="0.13953">
        <ele>26.6</ele>
        <time>2011-09-11T14:34:23Z</time>
      </trkpt>
      <trkpt lat="49.33074" lon="0.13949">
        <ele>25.6</ele>
        <time>2011-09-11T14:34:28Z</time>
      </trkpt>
      <trkpt lat="49.33064" lon="0.13929">
        <ele>24.2</ele>
        <time>2011-09-11T14:34:43Z</time>
      </trkpt>
      <trkpt lat="49.33061" lon="0.13923">
        <ele>24.2</ele>
        <time>2011-09-11T14:34:46Z</time>
      </trkpt>
      <trkpt lat="49.33049" lon="0.13911">
        <ele>26.1</ele>
        <time>2011-09-11T14:34:59Z</time>
      </trkpt>
      <trkpt lat="49.33043" lon="0.13896">
        <ele>23.2</ele>
        <time>2011-09-11T14:35:10Z</time>
      </trkpt>
      <trkpt lat="49.33033" lon="0.13884">
        <ele>19.8</ele>
        <time>2011-09-11T14:35:22Z</time>
      </trkpt>
      <trkpt lat="49.33014" lon="0.13863">
        <ele>18.4</ele>
        <time>2011-09-11T14:35:34Z</time>
      </trkpt>
      <trkpt lat="49.33011" lon="0.13855">
        <ele>17.4</ele>
        <time>2011-09-11T14:35:39Z</time>
      </trkpt>
      <trkpt lat="49.33006" lon="0.13839">
        <ele>17</ele>
        <time>2011-09-11T14:35:50Z</time>
      </trkpt>
      <trkpt lat="49.33004" lon="0.1383">
        <ele>16</ele>
        <time>2011-09-11T14:35:56Z</time>
      </trkpt>
      <trkpt lat="49.33001" lon="0.13824">
        <ele>14.6</ele>
        <time>2011-09-11T14:36:00Z</time>
      </trkpt>
      <trkpt lat="49.32994" lon="0.13821">
        <ele>15</ele>
        <time>2011-09-11T14:36:04Z</time>
      </trkpt>
      <trkpt lat="49.32992" lon="0.13817">
        <ele>15.5</ele>
        <time>2011-09-11T14:36:07Z</time>
      </trkpt>
      <trkpt lat="49.32986" lon="0.13805">
        <ele>16</ele>
        <time>2011-09-11T14:36:16Z</time>
      </trkpt>
      <trkpt lat="49.32986" lon="0.1379">
        <ele>18.4</ele>
        <time>2011-09-11T14:36:30Z</time>
      </trkpt>
      <trkpt lat="49.32971" lon="0.13765">
        <ele>18.9</ele>
        <time>2011-09-11T14:36:48Z</time>
      </trkpt>
      <trkpt lat="49.32969" lon="0.13756">
        <ele>19.4</ele>
        <time>2011-09-11T14:37:05Z</time>
      </trkpt>
      <trkpt lat="49.32976" lon="0.13746">
        <ele>18.4</ele>
        <time>2011-09-11T14:37:38Z</time>
      </trkpt>
      <trkpt lat="49.32987" lon="0.13733">
        <ele>16.5</ele>
        <time>2011-09-11T14:38:01Z</time>
      </trkpt>
      <trkpt lat="49.32996" lon="0.13724">
        <ele>15.5</ele>
        <time>2011-09-11T14:38:18Z</time>
      </trkpt>
      <trkpt lat="49.33015" lon="0.13701">
        <ele>14.1</ele>
        <time>2011-09-11T14:38:42Z</time>
      </trkpt>
      <trkpt lat="49.33029" lon="0.1368">
        <ele>14.6</ele>
        <time>2011-09-11T14:39:03Z</time>
      </trkpt>
      <trkpt lat="49.33038" lon="0.13672">
        <ele>15</ele>
        <time>2011-09-11T14:39:15Z</time>
      </trkpt>
      <trkpt lat="49.33055" lon="0.1366">
        <ele>16.5</ele>
        <time>2011-09-11T14:39:40Z</time>
      </trkpt>
      <trkpt lat="49.33072" lon="0.13638">
        <ele>18.9</ele>
        <time>2011-09-11T14:40:04Z</time>
      </trkpt>
      <trkpt lat="49.33085" lon="0.13618">
        <ele>21.3</ele>
        <time>2011-09-11T14:40:25Z</time>
      </trkpt>
      <trkpt lat="49.33095" lon="0.13599">
        <ele>25.6</ele>
        <time>2011-09-11T14:40:42Z</time>
      </trkpt>
      <trkpt lat="49.33102" lon="0.13591">
        <ele>30.9</ele>
        <time>2011-09-11T14:40:56Z</time>
      </trkpt>
      <trkpt lat="49.33113" lon="0.13576">
        <ele>36.2</ele>
        <time>2011-09-11T14:41:17Z</time>
      </trkpt>
      <trkpt lat="49.33121" lon="0.13569">
        <ele>39.1</ele>
        <time>2011-09-11T14:41:28Z</time>
      </trkpt>
      <trkpt lat="49.33127" lon="0.1356">
        <ele>41</ele>
        <time>2011-09-11T14:41:36Z</time>
      </trkpt>
      <trkpt lat="49.33133" lon="0.13553">
        <ele>42.4</ele>
        <time>2011-09-11T14:41:44Z</time>
      </trkpt>
      <trkpt lat="49.33137" lon="0.13545">
        <ele>43.9</ele>
        <time>2011-09-11T14:41:51Z</time>
      </trkpt>
      <trkpt lat="49.33143" lon="0.13536">
        <ele>45.8</ele>
        <time>2011-09-11T14:41:59Z</time>
      </trkpt>
      <trkpt lat="49.33153" lon="0.13519">
        <ele>49.2</ele>
        <time>2011-09-11T14:42:16Z</time>
      </trkpt>
      <trkpt lat="49.33169" lon="0.13503">
        <ele>53.5</ele>
        <time>2011-09-11T14:42:38Z</time>
      </trkpt>
      <trkpt lat="49.3318" lon="0.13494">
        <ele>57.8</ele>
        <time>2011-09-11T14:42:55Z</time>
      </trkpt>
      <trkpt lat="49.33187" lon="0.13485">
        <ele>61.2</ele>
        <time>2011-09-11T14:43:11Z</time>
      </trkpt>
      <trkpt lat="49.3319" lon="0.13481">
        <ele>60.7</ele>
        <time>2011-09-11T14:43:43Z</time>
      </trkpt>
      <trkpt lat="49.332" lon="0.1347">
        <ele>60.7</ele>
        <time>2011-09-11T14:44:01Z</time>
      </trkpt>
      <trkpt lat="49.33201" lon="0.13468">
        <ele>60.7</ele>
        <time>2011-09-11T14:44:02Z</time>
      </trkpt>
      <trkpt lat="49.33217" lon="0.13445">
        <ele>60.2</ele>
        <time>2011-09-11T14:44:26Z</time>
      </trkpt>
      <trkpt lat="49.33226" lon="0.13437">
        <ele>59.3</ele>
        <time>2011-09-11T14:44:45Z</time>
      </trkpt>
      <trkpt lat="49.33247" lon="0.13418">
        <ele>57.8</ele>
        <time>2011-09-11T14:45:10Z</time>
      </trkpt>
      <trkpt lat="49.33253" lon="0.13402">
        <ele>58.8</ele>
        <time>2011-09-11T14:45:24Z</time>
      </trkpt>
      <trkpt lat="49.33254" lon="0.13396">
        <ele>62.6</ele>
        <time>2011-09-11T14:45:43Z</time>
      </trkpt>
      <trkpt lat="49.33265" lon="0.13364">
        <ele>64.5</ele>
        <time>2011-09-11T14:46:09Z</time>
      </trkpt>
      <trkpt lat="49.33272" lon="0.13346">
        <ele>66.5</ele>
        <time>2011-09-11T14:46:23Z</time>
      </trkpt>
      <trkpt lat="49.3328" lon="0.13308">
        <ele>67.4</ele>
        <time>2011-09-11T14:46:45Z</time>
      </trkpt>
      <trkpt lat="49.33287" lon="0.1329">
        <ele>69.4</ele>
        <time>2011-09-11T14:47:00Z</time>
      </trkpt>
      <trkpt lat="49.33288" lon="0.13285">
        <ele>69.4</ele>
        <time>2011-09-11T14:47:03Z</time>
      </trkpt>
      <trkpt lat="49.33292" lon="0.13258">
        <ele>70.8</ele>
        <time>2011-09-11T14:47:17Z</time>
      </trkpt>
      <trkpt lat="49.33293" lon="0.13243">
        <ele>71.3</ele>
        <time>2011-09-11T14:47:27Z</time>
      </trkpt>
      <trkpt lat="49.33297" lon="0.13226">
        <ele>71.8</ele>
        <time>2011-09-11T14:47:36Z</time>
      </trkpt>
      <trkpt lat="49.33297" lon="0.13218">
        <ele>72.2</ele>
        <time>2011-09-11T14:47:40Z</time>
      </trkpt>
      <trkpt lat="49.33298" lon="0.13214">
        <ele>72.2</ele>
        <time>2011-09-11T14:47:43Z</time>
      </trkpt>
      <trkpt lat="49.33302" lon="0.13206">
        <ele>71.3</ele>
        <time>2011-09-11T14:47:48Z</time>
      </trkpt>
      <trkpt lat="49.33306" lon="0.132">
        <ele>72.2</ele>
        <time>2011-09-11T14:47:54Z</time>
      </trkpt>
      <trkpt lat="49.33316" lon="0.13188">
        <ele>72.2</ele>
        <time>2011-09-11T14:48:04Z</time>
      </trkpt>
      <trkpt lat="49.33323" lon="0.13189">
        <ele>71.8</ele>
        <time>2011-09-11T14:48:10Z</time>
      </trkpt>
      <trkpt lat="49.3334" lon="0.13192">
        <ele>71.8</ele>
        <time>2011-09-11T14:48:26Z</time>
      </trkpt>
      <trkpt lat="49.33355" lon="0.13198">
        <ele>71.3</ele>
        <time>2011-09-11T14:48:53Z</time>
      </trkpt>
      <trkpt lat="49.33355" lon="0.13195">
        <ele>72.2</ele>
        <time>2011-09-11T14:50:12Z</time>
      </trkpt>
      <trkpt lat="49.33355" lon="0.13196">
        <ele>72.2</ele>
        <time>2011-09-11T14:50:18Z</time>
      </trkpt>
      <trkpt lat="49.33359" lon="0.13179">
        <ele>72.7</ele>
        <time>2011-09-11T14:50:29Z</time>
      </trkpt>
      <trkpt lat="49.33359" lon="0.1316">
        <ele>74.6</ele>
        <time>2011-09-11T14:50:44Z</time>
      </trkpt>
      <trkpt lat="49.3336" lon="0.13157">
        <ele>74.6</ele>
        <time>2011-09-11T14:50:46Z</time>
      </trkpt>
      <trkpt lat="49.33367" lon="0.13136">
        <ele>77</ele>
        <time>2011-09-11T14:51:02Z</time>
      </trkpt>
      <trkpt lat="49.3337" lon="0.13131">
        <ele>77</ele>
        <time>2011-09-11T14:51:05Z</time>
      </trkpt>
      <trkpt lat="49.33374" lon="0.13111">
        <ele>76.6</ele>
        <time>2011-09-11T14:51:14Z</time>
      </trkpt>
      <trkpt lat="49.33378" lon="0.13096">
        <ele>76.1</ele>
        <time>2011-09-11T14:51:23Z</time>
      </trkpt>
      <trkpt lat="49.33377" lon="0.1308">
        <ele>75.6</ele>
        <time>2011-09-11T14:51:33Z</time>
      </trkpt>
      <trkpt lat="49.33378" lon="0.13072">
        <ele>75.1</ele>
        <time>2011-09-11T14:51:37Z</time>
      </trkpt>
      <trkpt lat="49.33379" lon="0.13069">
        <ele>73.7</ele>
        <time>2011-09-11T14:51:39Z</time>
      </trkpt>
      <trkpt lat="49.33379" lon="0.13063">
        <ele>73.2</ele>
        <time>2011-09-11T14:51:42Z</time>
      </trkpt>
      <trkpt lat="49.33383" lon="0.13032">
        <ele>71.3</ele>
        <time>2011-09-11T14:51:59Z</time>
      </trkpt>
      <trkpt lat="49.33384" lon="0.13027">
        <ele>71.8</ele>
        <time>2011-09-11T14:52:02Z</time>
      </trkpt>
      <trkpt lat="49.33383" lon="0.13016">
        <ele>72.7</ele>
        <time>2011-09-11T14:52:08Z</time>
      </trkpt>
      <trkpt lat="49.33385" lon="0.12987">
        <ele>72.2</ele>
        <time>2011-09-11T14:52:23Z</time>
      </trkpt>
      <trkpt lat="49.33384" lon="0.1298">
        <ele>71.8</ele>
        <time>2011-09-11T14:52:27Z</time>
      </trkpt>
      <trkpt lat="49.33385" lon="0.12962">
        <ele>72.7</ele>
        <time>2011-09-11T14:52:37Z</time>
      </trkpt>
      <trkpt lat="49.33385" lon="0.12961">
        <ele>72.7</ele>
        <time>2011-09-11T14:52:38Z</time>
      </trkpt>
      <trkpt lat="49.33389" lon="0.12933">
        <ele>73.7</ele>
        <time>2011-09-11T14:52:51Z</time>
      </trkpt>
      <trkpt lat="49.3339" lon="0.12902">
        <ele>74.6</ele>
        <time>2011-09-11T14:53:07Z</time>
      </trkpt>
      <trkpt lat="49.33394" lon="0.12889">
        <ele>74.6</ele>
        <time>2011-09-11T14:53:13Z</time>
      </trkpt>
      <trkpt lat="49.33392" lon="0.12876">
        <ele>74.6</ele>
        <time>2011-09-11T14:53:24Z</time>
      </trkpt>
      <trkpt lat="49.33394" lon="0.1287">
        <ele>74.6</ele>
        <time>2011-09-11T14:53:30Z</time>
      </trkpt>
      <trkpt lat="49.33402" lon="0.12853">
        <ele>72.2</ele>
        <time>2011-09-11T14:53:39Z</time>
      </trkpt>
      <trkpt lat="49.33405" lon="0.12846">
        <ele>71.8</ele>
        <time>2011-09-11T14:53:43Z</time>
      </trkpt>
      <trkpt lat="49.33407" lon="0.12833">
        <ele>69.4</ele>
        <time>2011-09-11T14:53:50Z</time>
      </trkpt>
      <trkpt lat="49.33409" lon="0.12829">
        <ele>67.9</ele>
        <time>2011-09-11T14:53:53Z</time>
      </trkpt>
      <trkpt lat="49.33414" lon="0.12825">
        <ele>66.5</ele>
        <time>2011-09-11T14:53:57Z</time>
      </trkpt>
      <trkpt lat="49.33422" lon="0.12805">
        <ele>62.6</ele>
        <time>2011-09-11T14:54:07Z</time>
      </trkpt>
      <trkpt lat="49.33428" lon="0.12792">
        <ele>62.6</ele>
        <time>2011-09-11T14:54:18Z</time>
      </trkpt>
      <trkpt lat="49.3343" lon="0.12778">
        <ele>63.6</ele>
        <time>2011-09-11T14:54:29Z</time>
      </trkpt>
      <trkpt lat="49.33433" lon="0.12772">
        <ele>64.5</ele>
        <time>2011-09-11T14:54:33Z</time>
      </trkpt>
      <trkpt lat="49.33433" lon="0.12754">
        <ele>64.1</ele>
        <time>2011-09-11T14:54:42Z</time>
      </trkpt>
      <trkpt lat="49.33445" lon="0.12735">
        <ele>65</ele>
        <time>2011-09-11T14:54:54Z</time>
      </trkpt>
      <trkpt lat="49.33446" lon="0.12727">
        <ele>66.9</ele>
        <time>2011-09-11T14:54:59Z</time>
      </trkpt>
      <trkpt lat="49.33449" lon="0.12718">
        <ele>68.9</ele>
        <time>2011-09-11T14:55:04Z</time>
      </trkpt>
      <trkpt lat="49.33455" lon="0.12712">
        <ele>68.4</ele>
        <time>2011-09-11T14:55:10Z</time>
      </trkpt>
      <trkpt lat="49.3346" lon="0.12694">
        <ele>68.4</ele>
        <time>2011-09-11T14:55:28Z</time>
      </trkpt>
      <trkpt lat="49.3345" lon="0.12683">
        <ele>70.8</ele>
        <time>2011-09-11T14:56:11Z</time>
      </trkpt>
      <trkpt lat="49.33444" lon="0.12678">
        <ele>71.3</ele>
        <time>2011-09-11T14:56:16Z</time>
      </trkpt>
      <trkpt lat="49.33432" lon="0.12671">
        <ele>70.8</ele>
        <time>2011-09-11T14:56:27Z</time>
      </trkpt>
      <trkpt lat="49.33431" lon="0.12669">
        <ele>69.8</ele>
        <time>2011-09-11T14:56:29Z</time>
      </trkpt>
      <trkpt lat="49.33423" lon="0.12663">
        <ele>69.4</ele>
        <time>2011-09-11T14:56:36Z</time>
      </trkpt>
      <trkpt lat="49.33415" lon="0.12651">
        <ele>66.5</ele>
        <time>2011-09-11T14:56:47Z</time>
      </trkpt>
      <trkpt lat="49.33407" lon="0.12645">
        <ele>64.5</ele>
        <time>2011-09-11T14:56:54Z</time>
      </trkpt>
      <trkpt lat="49.33396" lon="0.12638">
        <ele>63.1</ele>
        <time>2011-09-11T14:57:02Z</time>
      </trkpt>
      <trkpt lat="49.33384" lon="0.12624">
        <ele>59.7</ele>
        <time>2011-09-11T14:57:17Z</time>
      </trkpt>
      <trkpt lat="49.33383" lon="0.12611">
        <ele>55.9</ele>
        <time>2011-09-11T14:57:24Z</time>
      </trkpt>
      <trkpt lat="49.33384" lon="0.12605">
        <ele>54.9</ele>
        <time>2011-09-11T14:57:27Z</time>
      </trkpt>
      <trkpt lat="49.33384" lon="0.12601">
        <ele>54.5</ele>
        <time>2011-09-11T14:57:29Z</time>
      </trkpt>
      <trkpt lat="49.33386" lon="0.12588">
        <ele>54.5</ele>
        <time>2011-09-11T14:57:34Z</time>
      </trkpt>
      <trkpt lat="49.33389" lon="0.1258">
        <ele>52</ele>
        <time>2011-09-11T14:57:38Z</time>
      </trkpt>
      <trkpt lat="49.33393" lon="0.12564">
        <ele>52</ele>
        <time>2011-09-11T14:57:48Z</time>
      </trkpt>
      <trkpt lat="49.33393" lon="0.12544">
        <ele>50.6</ele>
        <time>2011-09-11T14:57:59Z</time>
      </trkpt>
      <trkpt lat="49.33396" lon="0.12524">
        <ele>50.1</ele>
        <time>2011-09-11T14:58:13Z</time>
      </trkpt>
      <trkpt lat="49.33401" lon="0.12496">
        <ele>48.2</ele>
        <time>2011-09-11T14:58:31Z</time>
      </trkpt>
      <trkpt lat="49.33397" lon="0.12483">
        <ele>49.2</ele>
        <time>2011-09-11T14:58:37Z</time>
      </trkpt>
      <trkpt lat="49.33395" lon="0.1248">
        <ele>49.2</ele>
        <time>2011-09-11T14:58:39Z</time>
      </trkpt>
      <trkpt lat="49.33394" lon="0.12477">
        <ele>48.7</ele>
        <time>2011-09-11T14:58:42Z</time>
      </trkpt>
      <trkpt lat="49.33384" lon="0.12466">
        <ele>46.3</ele>
        <time>2011-09-11T14:58:53Z</time>
      </trkpt>
      <trkpt lat="49.33377" lon="0.12463">
        <ele>45.3</ele>
        <time>2011-09-11T14:58:58Z</time>
      </trkpt>
      <trkpt lat="49.33365" lon="0.12448">
        <ele>45.3</ele>
        <time>2011-09-11T14:59:11Z</time>
      </trkpt>
      <trkpt lat="49.33349" lon="0.12429">
        <ele>44.8</ele>
        <time>2011-09-11T14:59:27Z</time>
      </trkpt>
      <trkpt lat="49.3334" lon="0.12414">
        <ele>41</ele>
        <time>2011-09-11T14:59:38Z</time>
      </trkpt>
      <trkpt lat="49.33335" lon="0.12404">
        <ele>38.1</ele>
        <time>2011-09-11T14:59:46Z</time>
      </trkpt>
      <trkpt lat="49.33322" lon="0.1238">
        <ele>31.9</ele>
        <time>2011-09-11T15:00:05Z</time>
      </trkpt>
      <trkpt lat="49.33314" lon="0.12359">
        <ele>30.4</ele>
        <time>2011-09-11T15:00:13Z</time>
      </trkpt>
      <trkpt lat="49.33313" lon="0.12345">
        <ele>27.1</ele>
        <time>2011-09-11T15:00:23Z</time>
      </trkpt>
      <trkpt lat="49.33315" lon="0.1234">
        <ele>27.1</ele>
        <time>2011-09-11T15:00:26Z</time>
      </trkpt>
      <trkpt lat="49.3333" lon="0.12323">
        <ele>27.5</ele>
        <time>2011-09-11T15:00:40Z</time>
      </trkpt>
      <trkpt lat="49.33337" lon="0.12312">
        <ele>30.4</ele>
        <time>2011-09-11T15:00:53Z</time>
      </trkpt>
      <trkpt lat="49.33349" lon="0.12301">
        <ele>30.9</ele>
        <time>2011-09-11T15:01:07Z</time>
      </trkpt>
      <trkpt lat="49.33355" lon="0.12297">
        <ele>31.9</ele>
        <time>2011-09-11T15:01:12Z</time>
      </trkpt>
      <trkpt lat="49.33357" lon="0.12298">
        <ele>32.3</ele>
        <time>2011-09-11T15:01:14Z</time>
      </trkpt>
      <trkpt lat="49.33361" lon="0.12294">
        <ele>32.3</ele>
        <time>2011-09-11T15:01:24Z</time>
      </trkpt>
      <trkpt lat="49.33376" lon="0.12286">
        <ele>32.8</ele>
        <time>2011-09-11T15:01:36Z</time>
      </trkpt>
      <trkpt lat="49.3339" lon="0.12277">
        <ele>31.9</ele>
        <time>2011-09-11T15:01:51Z</time>
      </trkpt>
      <trkpt lat="49.33405" lon="0.12264">
        <ele>31.9</ele>
        <time>2011-09-11T15:02:06Z</time>
      </trkpt>
      <trkpt lat="49.33422" lon="0.12247">
        <ele>32.8</ele>
        <time>2011-09-11T15:02:25Z</time>
      </trkpt>
      <trkpt lat="49.33429" lon="0.12229">
        <ele>38.6</ele>
        <time>2011-09-11T15:02:39Z</time>
      </trkpt>
      <trkpt lat="49.33437" lon="0.12218">
        <ele>39.1</ele>
        <time>2011-09-11T15:02:50Z</time>
      </trkpt>
      <trkpt lat="49.3344" lon="0.12211">
        <ele>38.6</ele>
        <time>2011-09-11T15:02:58Z</time>
      </trkpt>
      <trkpt lat="49.3346" lon="0.12197">
        <ele>36.7</ele>
        <time>2011-09-11T15:03:14Z</time>
      </trkpt>
      <trkpt lat="49.33473" lon="0.12188">
        <ele>36.2</ele>
        <time>2011-09-11T15:03:25Z</time>
      </trkpt>
      <trkpt lat="49.33474" lon="0.12184">
        <ele>37.1</ele>
        <time>2011-09-11T15:03:28Z</time>
      </trkpt>
      <trkpt lat="49.33486" lon="0.1217">
        <ele>38.6</ele>
        <time>2011-09-11T15:03:42Z</time>
      </trkpt>
      <trkpt lat="49.33493" lon="0.12163">
        <ele>37.1</ele>
        <time>2011-09-11T15:03:54Z</time>
      </trkpt>
      <trkpt lat="49.33495" lon="0.12161">
        <ele>36.2</ele>
        <time>2011-09-11T15:03:56Z</time>
      </trkpt>
      <trkpt lat="49.33497" lon="0.12157">
        <ele>35.7</ele>
        <time>2011-09-11T15:03:59Z</time>
      </trkpt>
      <trkpt lat="49.335" lon="0.12153">
        <ele>34.7</ele>
        <time>2011-09-11T15:04:02Z</time>
      </trkpt>
      <trkpt lat="49.33504" lon="0.12151">
        <ele>34.7</ele>
        <time>2011-09-11T15:04:04Z</time>
      </trkpt>
      <trkpt lat="49.33511" lon="0.1214">
        <ele>35.2</ele>
        <time>2011-09-11T15:04:15Z</time>
      </trkpt>
      <trkpt lat="49.33516" lon="0.12135">
        <ele>35.2</ele>
        <time>2011-09-11T15:04:21Z</time>
      </trkpt>
      <trkpt lat="49.33518" lon="0.12132">
        <ele>35.2</ele>
        <time>2011-09-11T15:04:24Z</time>
      </trkpt>
      <trkpt lat="49.33527" lon="0.12126">
        <ele>35.2</ele>
        <time>2011-09-11T15:04:33Z</time>
      </trkpt>
      <trkpt lat="49.33531" lon="0.12122">
        <ele>35.2</ele>
        <time>2011-09-11T15:04:37Z</time>
      </trkpt>
      <trkpt lat="49.33532" lon="0.12117">
        <ele>34.7</ele>
        <time>2011-09-11T15:04:40Z</time>
      </trkpt>
      <trkpt lat="49.33536" lon="0.12112">
        <ele>35.7</ele>
        <time>2011-09-11T15:04:46Z</time>
      </trkpt>
      <trkpt lat="49.33551" lon="0.12102">
        <ele>35.7</ele>
        <time>2011-09-11T15:04:59Z</time>
      </trkpt>
      <trkpt lat="49.33561" lon="0.12096">
        <ele>34.7</ele>
        <time>2011-09-11T15:05:11Z</time>
      </trkpt>
      <trkpt lat="49.3358" lon="0.12082">
        <ele>33.8</ele>
        <time>2011-09-11T15:05:24Z</time>
      </trkpt>
      <trkpt lat="49.3359" lon="0.1207">
        <ele>33.8</ele>
        <time>2011-09-11T15:05:35Z</time>
      </trkpt>
      <trkpt lat="49.33591" lon="0.12068">
        <ele>34.3</ele>
        <time>2011-09-11T15:05:37Z</time>
      </trkpt>
      <trkpt lat="49.33602" lon="0.12057">
        <ele>35.2</ele>
        <time>2011-09-11T15:05:48Z</time>
      </trkpt>
      <trkpt lat="49.33617" lon="0.12042">
        <ele>34.3</ele>
        <time>2011-09-11T15:06:01Z</time>
      </trkpt>
      <trkpt lat="49.33634" lon="0.1203">
        <ele>35.7</ele>
        <time>2011-09-11T15:06:16Z</time>
      </trkpt>
      <trkpt lat="49.33636" lon="0.12027">
        <ele>36.2</ele>
        <time>2011-09-11T15:06:18Z</time>
      </trkpt>
      <trkpt lat="49.33642" lon="0.12025">
        <ele>36.7</ele>
        <time>2011-09-11T15:06:22Z</time>
      </trkpt>
      <trkpt lat="49.33659" lon="0.12007">
        <ele>36.7</ele>
        <time>2011-09-11T15:06:37Z</time>
      </trkpt>
      <trkpt lat="49.33663" lon="0.12004">
        <ele>37.1</ele>
        <time>2011-09-11T15:06:40Z</time>
      </trkpt>
      <trkpt lat="49.33669" lon="0.11994">
        <ele>38.1</ele>
        <time>2011-09-11T15:06:51Z</time>
      </trkpt>
      <trkpt lat="49.33675" lon="0.11988">
        <ele>39.6</ele>
        <time>2011-09-11T15:06:55Z</time>
      </trkpt>
      <trkpt lat="49.33685" lon="0.11981">
        <ele>42.4</ele>
        <time>2011-09-11T15:07:05Z</time>
      </trkpt>
      <trkpt lat="49.33688" lon="0.11981">
        <ele>43.4</ele>
        <time>2011-09-11T15:07:08Z</time>
      </trkpt>
      <trkpt lat="49.33696" lon="0.11979">
        <ele>44.4</ele>
        <time>2011-09-11T15:07:14Z</time>
      </trkpt>
      <trkpt lat="49.33701" lon="0.11975">
        <ele>44.4</ele>
        <time>2011-09-11T15:07:19Z</time>
      </trkpt>
      <trkpt lat="49.33706" lon="0.1197">
        <ele>46.8</ele>
        <time>2011-09-11T15:07:25Z</time>
      </trkpt>
      <trkpt lat="49.33723" lon="0.11967">
        <ele>44.4</ele>
        <time>2011-09-11T15:07:39Z</time>
      </trkpt>
      <trkpt lat="49.33732" lon="0.1196">
        <ele>40.5</ele>
        <time>2011-09-11T15:07:48Z</time>
      </trkpt>
      <trkpt lat="49.33735" lon="0.11957">
        <ele>41.5</ele>
        <time>2011-09-11T15:07:52Z</time>
      </trkpt>
      <trkpt lat="49.33743" lon="0.11945">
        <ele>40</ele>
        <time>2011-09-11T15:08:01Z</time>
      </trkpt>
      <trkpt lat="49.33748" lon="0.11945">
        <ele>41</ele>
        <time>2011-09-11T15:08:04Z</time>
      </trkpt>
      <trkpt lat="49.33755" lon="0.11943">
        <ele>42.9</ele>
        <time>2011-09-11T15:08:13Z</time>
      </trkpt>
      <trkpt lat="49.33757" lon="0.11941">
        <ele>42.9</ele>
        <time>2011-09-11T15:08:15Z</time>
      </trkpt>
      <trkpt lat="49.3376" lon="0.11941">
        <ele>43.4</ele>
        <time>2011-09-11T15:08:17Z</time>
      </trkpt>
      <trkpt lat="49.3377" lon="0.11934">
        <ele>44.8</ele>
        <time>2011-09-11T15:08:25Z</time>
      </trkpt>
      <trkpt lat="49.3378" lon="0.11932">
        <ele>45.3</ele>
        <time>2011-09-11T15:08:37Z</time>
      </trkpt>
      <trkpt lat="49.33787" lon="0.11927">
        <ele>46.3</ele>
        <time>2011-09-11T15:08:57Z</time>
      </trkpt>
      <trkpt lat="49.33786" lon="0.11928">
        <ele>46.3</ele>
        <time>2011-09-11T15:09:34Z</time>
      </trkpt>
      <trkpt lat="49.33788" lon="0.11927">
        <ele>47.7</ele>
        <time>2011-09-11T15:11:07Z</time>
      </trkpt>
      <trkpt lat="49.33796" lon="0.11923">
        <ele>47.7</ele>
        <time>2011-09-11T15:11:49Z</time>
      </trkpt>
      <trkpt lat="49.33796" lon="0.11916">
        <ele>48.2</ele>
        <time>2011-09-11T15:11:57Z</time>
      </trkpt>
      <trkpt lat="49.338" lon="0.11896">
        <ele>47.7</ele>
        <time>2011-09-11T15:12:10Z</time>
      </trkpt>
      <trkpt lat="49.33811" lon="0.11878">
        <ele>47.2</ele>
        <time>2011-09-11T15:12:26Z</time>
      </trkpt>
      <trkpt lat="49.33828" lon="0.11862">
        <ele>45.3</ele>
        <time>2011-09-11T15:12:45Z</time>
      </trkpt>
      <trkpt lat="49.33834" lon="0.1186">
        <ele>45.3</ele>
        <time>2011-09-11T15:12:51Z</time>
      </trkpt>
      <trkpt lat="49.33846" lon="0.11853">
        <ele>44.8</ele>
        <time>2011-09-11T15:13:02Z</time>
      </trkpt>
      <trkpt lat="49.33857" lon="0.11853">
        <ele>44.8</ele>
        <time>2011-09-11T15:13:14Z</time>
      </trkpt>
      <trkpt lat="49.33883" lon="0.11854">
        <ele>45.3</ele>
        <time>2011-09-11T15:13:38Z</time>
      </trkpt>
      <trkpt lat="49.33889" lon="0.11856">
        <ele>44.4</ele>
        <time>2011-09-11T15:13:42Z</time>
      </trkpt>
      <trkpt lat="49.33901" lon="0.11848">
        <ele>43.9</ele>
        <time>2011-09-11T15:13:56Z</time>
      </trkpt>
      <trkpt lat="49.33908" lon="0.11842">
        <ele>43.4</ele>
        <time>2011-09-11T15:14:04Z</time>
      </trkpt>
      <trkpt lat="49.33916" lon="0.11833">
        <ele>42.9</ele>
        <time>2011-09-11T15:14:10Z</time>
      </trkpt>
      <trkpt lat="49.33922" lon="0.11828">
        <ele>42.9</ele>
        <time>2011-09-11T15:14:16Z</time>
      </trkpt>
      <trkpt lat="49.33934" lon="0.11825">
        <ele>42.4</ele>
        <time>2011-09-11T15:14:23Z</time>
      </trkpt>
      <trkpt lat="49.33953" lon="0.11814">
        <ele>44.4</ele>
        <time>2011-09-11T15:14:41Z</time>
      </trkpt>
      <trkpt lat="49.33961" lon="0.1182">
        <ele>43.9</ele>
        <time>2011-09-11T15:14:49Z</time>
      </trkpt>
      <trkpt lat="49.33964" lon="0.11825">
        <ele>43.4</ele>
        <time>2011-09-11T15:14:53Z</time>
      </trkpt>
      <trkpt lat="49.33969" lon="0.1183">
        <ele>42.4</ele>
        <time>2011-09-11T15:14:59Z</time>
      </trkpt>
      <trkpt lat="49.3397" lon="0.11845">
        <ele>41.5</ele>
        <time>2011-09-11T15:15:12Z</time>
      </trkpt>
      <trkpt lat="49.3397" lon="0.11852">
        <ele>40.5</ele>
        <time>2011-09-11T15:15:27Z</time>
      </trkpt>
      <trkpt lat="49.33971" lon="0.11855">
        <ele>41.5</ele>
        <time>2011-09-11T15:15:30Z</time>
      </trkpt>
      <trkpt lat="49.33977" lon="0.11868">
        <ele>41.5</ele>
        <time>2011-09-11T15:15:40Z</time>
      </trkpt>
      <trkpt lat="49.33984" lon="0.1187">
        <ele>42</ele>
        <time>2011-09-11T15:15:44Z</time>
      </trkpt>
      <trkpt lat="49.33994" lon="0.1189">
        <ele>42.9</ele>
        <time>2011-09-11T15:15:59Z</time>
      </trkpt>
      <trkpt lat="49.34001" lon="0.11907">
        <ele>43.4</ele>
        <time>2011-09-11T15:16:13Z</time>
      </trkpt>
      <trkpt lat="49.34015" lon="0.11945">
        <ele>42.9</ele>
        <time>2011-09-11T15:16:40Z</time>
      </trkpt>
      <trkpt lat="49.34034" lon="0.11976">
        <ele>42.9</ele>
        <time>2011-09-11T15:16:58Z</time>
      </trkpt>
      <trkpt lat="49.34038" lon="0.11983">
        <ele>42.4</ele>
        <time>2011-09-11T15:17:03Z</time>
      </trkpt>
      <trkpt lat="49.34039" lon="0.1199">
        <ele>42</ele>
        <time>2011-09-11T15:17:14Z</time>
      </trkpt>
      <trkpt lat="49.34046" lon="0.1201">
        <ele>43.4</ele>
        <time>2011-09-11T15:17:30Z</time>
      </trkpt>
      <trkpt lat="49.34051" lon="0.12028">
        <ele>44.8</ele>
        <time>2011-09-11T15:17:40Z</time>
      </trkpt>
      <trkpt lat="49.34065" lon="0.1204">
        <ele>46.8</ele>
        <time>2011-09-11T15:17:50Z</time>
      </trkpt>
      <trkpt lat="49.34068" lon="0.1204">
        <ele>47.2</ele>
        <time>2011-09-11T15:17:52Z</time>
      </trkpt>
      <trkpt lat="49.3408" lon="0.12038">
        <ele>47.2</ele>
        <time>2011-09-11T15:18:03Z</time>
      </trkpt>
      <trkpt lat="49.34083" lon="0.12031">
        <ele>46.3</ele>
        <time>2011-09-11T15:18:07Z</time>
      </trkpt>
      <trkpt lat="49.34091" lon="0.12034">
        <ele>46.8</ele>
        <time>2011-09-11T15:18:13Z</time>
      </trkpt>
      <trkpt lat="49.34097" lon="0.12031">
        <ele>44.4</ele>
        <time>2011-09-11T15:18:19Z</time>
      </trkpt>
      <trkpt lat="49.34099" lon="0.12031">
        <ele>43.4</ele>
        <time>2011-09-11T15:18:22Z</time>
      </trkpt>
      <trkpt lat="49.34109" lon="0.12026">
        <ele>43.4</ele>
        <time>2011-09-11T15:18:31Z</time>
      </trkpt>
      <trkpt lat="49.34118" lon="0.12024">
        <ele>42.9</ele>
        <time>2011-09-11T15:18:37Z</time>
      </trkpt>
      <trkpt lat="49.3412" lon="0.1202">
        <ele>43.4</ele>
        <time>2011-09-11T15:18:40Z</time>
      </trkpt>
      <trkpt lat="49.34124" lon="0.12017">
        <ele>45.8</ele>
        <time>2011-09-11T15:18:44Z</time>
      </trkpt>
      <trkpt lat="49.34126" lon="0.12015">
        <ele>46.3</ele>
        <time>2011-09-11T15:18:46Z</time>
      </trkpt>
      <trkpt lat="49.34128" lon="0.12014">
        <ele>46.8</ele>
        <time>2011-09-11T15:18:49Z</time>
      </trkpt>
      <trkpt lat="49.34132" lon="0.12015">
        <ele>46.3</ele>
        <time>2011-09-11T15:18:52Z</time>
      </trkpt>
      <trkpt lat="49.34144" lon="0.12012">
        <ele>46.3</ele>
        <time>2011-09-11T15:19:09Z</time>
      </trkpt>
      <trkpt lat="49.34151" lon="0.12003">
        <ele>45.8</ele>
        <time>2011-09-11T15:19:16Z</time>
      </trkpt>
      <trkpt lat="49.34153" lon="0.12001">
        <ele>45.8</ele>
        <time>2011-09-11T15:19:18Z</time>
      </trkpt>
      <trkpt lat="49.34155" lon="0.12001">
        <ele>45.8</ele>
        <time>2011-09-11T15:19:20Z</time>
      </trkpt>
      <trkpt lat="49.34162" lon="0.12001">
        <ele>44.8</ele>
        <time>2011-09-11T15:19:25Z</time>
      </trkpt>
      <trkpt lat="49.34164" lon="0.11995">
        <ele>43.4</ele>
        <time>2011-09-11T15:19:28Z</time>
      </trkpt>
      <trkpt lat="49.34173" lon="0.11999">
        <ele>43.4</ele>
        <time>2011-09-11T15:19:35Z</time>
      </trkpt>
      <trkpt lat="49.34175" lon="0.11995">
        <ele>42.9</ele>
        <time>2011-09-11T15:19:43Z</time>
      </trkpt>
      <trkpt lat="49.3419" lon="0.11989">
        <ele>44.4</ele>
        <time>2011-09-11T15:20:00Z</time>
      </trkpt>
      <trkpt lat="49.34197" lon="0.11986">
        <ele>43.9</ele>
        <time>2011-09-11T15:20:07Z</time>
      </trkpt>
      <trkpt lat="49.34217" lon="0.11969">
        <ele>43.4</ele>
        <time>2011-09-11T15:20:28Z</time>
      </trkpt>
      <trkpt lat="49.34219" lon="0.11966">
        <ele>42.9</ele>
        <time>2011-09-11T15:20:30Z</time>
      </trkpt>
      <trkpt lat="49.34227" lon="0.11962">
        <ele>42</ele>
        <time>2011-09-11T15:20:46Z</time>
      </trkpt>
      <trkpt lat="49.34235" lon="0.11956">
        <ele>41</ele>
        <time>2011-09-11T15:21:19Z</time>
      </trkpt>
      <trkpt lat="49.34245" lon="0.1195">
        <ele>36.2</ele>
        <time>2011-09-11T15:21:34Z</time>
      </trkpt>
      <trkpt lat="49.34257" lon="0.11942">
        <ele>30.4</ele>
        <time>2011-09-11T15:21:48Z</time>
      </trkpt>
      <trkpt lat="49.34266" lon="0.11938">
        <ele>29.9</ele>
        <time>2011-09-11T15:22:00Z</time>
      </trkpt>
      <trkpt lat="49.34278" lon="0.11935">
        <ele>29.9</ele>
        <time>2011-09-11T15:22:14Z</time>
      </trkpt>
      <trkpt lat="49.34304" lon="0.11933">
        <ele>31.4</ele>
        <time>2011-09-11T15:22:33Z</time>
      </trkpt>
      <trkpt lat="49.3431" lon="0.11932">
        <ele>37.6</ele>
        <time>2011-09-11T15:22:48Z</time>
      </trkpt>
      <trkpt lat="49.34316" lon="0.11935">
        <ele>30.9</ele>
        <time>2011-09-11T15:23:07Z</time>
      </trkpt>
      <trkpt lat="49.34316" lon="0.11924">
        <ele>30.4</ele>
        <time>2011-09-11T15:23:27Z</time>
      </trkpt>
      <trkpt lat="49.34315" lon="0.11912">
        <ele>29.5</ele>
        <time>2011-09-11T15:23:48Z</time>
      </trkpt>
      <trkpt lat="49.34323" lon="0.11907">
        <ele>30.4</ele>
        <time>2011-09-11T15:24:19Z</time>
      </trkpt>
      <trkpt lat="49.34324" lon="0.11905">
        <ele>30.9</ele>
        <time>2011-09-11T15:24:42Z</time>
      </trkpt>
      <trkpt lat="49.3433" lon="0.11894">
        <ele>33.3</ele>
        <time>2011-09-11T15:26:59Z</time>
      </trkpt>
      <trkpt lat="49.34331" lon="0.1188">
        <ele>33.8</ele>
        <time>2011-09-11T15:27:28Z</time>
      </trkpt>
      <trkpt lat="49.34339" lon="0.11875">
        <ele>34.7</ele>
        <time>2011-09-11T15:27:46Z</time>
      </trkpt>
      <trkpt lat="49.34352" lon="0.11862">
        <ele>35.2</ele>
        <time>2011-09-11T15:28:24Z</time>
      </trkpt>
      <trkpt lat="49.34367" lon="0.11858">
        <ele>36.2</ele>
        <time>2011-09-11T15:28:47Z</time>
      </trkpt>
      <trkpt lat="49.34374" lon="0.11859">
        <ele>32.3</ele>
        <time>2011-09-11T15:29:15Z</time>
      </trkpt>
      <trkpt lat="49.34379" lon="0.11854">
        <ele>31.9</ele>
        <time>2011-09-11T15:29:36Z</time>
      </trkpt>
      <trkpt lat="49.34388" lon="0.11846">
        <ele>30.9</ele>
        <time>2011-09-11T15:29:50Z</time>
      </trkpt>
      <trkpt lat="49.344" lon="0.11841">
        <ele>29</ele>
        <time>2011-09-11T15:30:01Z</time>
      </trkpt>
      <trkpt lat="49.34405" lon="0.11833">
        <ele>26.1</ele>
        <time>2011-09-11T15:30:16Z</time>
      </trkpt>
      <trkpt lat="49.34411" lon="0.1183">
        <ele>26.1</ele>
        <time>2011-09-11T15:30:42Z</time>
      </trkpt>
      <trkpt lat="49.34408" lon="0.11815">
        <ele>23.2</ele>
        <time>2011-09-11T15:31:03Z</time>
      </trkpt>
      <trkpt lat="49.34405" lon="0.11809">
        <ele>22.7</ele>
        <time>2011-09-11T15:31:08Z</time>
      </trkpt>
      <trkpt lat="49.34402" lon="0.11805">
        <ele>22.7</ele>
        <time>2011-09-11T15:31:11Z</time>
      </trkpt>
      <trkpt lat="49.34396" lon="0.11775">
        <ele>20.8</ele>
        <time>2011-09-11T15:31:34Z</time>
      </trkpt>
      <trkpt lat="49.34395" lon="0.11763">
        <ele>19.8</ele>
        <time>2011-09-11T15:31:42Z</time>
      </trkpt>
      <trkpt lat="49.34394" lon="0.11742">
        <ele>18.9</ele>
        <time>2011-09-11T15:31:55Z</time>
      </trkpt>
      <trkpt lat="49.34394" lon="0.1173">
        <ele>18.9</ele>
        <time>2011-09-11T15:32:00Z</time>
      </trkpt>
      <trkpt lat="49.34392" lon="0.11706">
        <ele>18.4</ele>
        <time>2011-09-11T15:32:12Z</time>
      </trkpt>
      <trkpt lat="49.3439" lon="0.11698">
        <ele>18.9</ele>
        <time>2011-09-11T15:32:15Z</time>
      </trkpt>
      <trkpt lat="49.34388" lon="0.11674">
        <ele>18.9</ele>
        <time>2011-09-11T15:32:26Z</time>
      </trkpt>
      <trkpt lat="49.34389" lon="0.11655">
        <ele>21.3</ele>
        <time>2011-09-11T15:32:41Z</time>
      </trkpt>
      <trkpt lat="49.34384" lon="0.11634">
        <ele>24.2</ele>
        <time>2011-09-11T15:32:49Z</time>
      </trkpt>
      <trkpt lat="49.34379" lon="0.11614">
        <ele>27.5</ele>
        <time>2011-09-11T15:32:59Z</time>
      </trkpt>
      <trkpt lat="49.34381" lon="0.11596">
        <ele>23.7</ele>
        <time>2011-09-11T15:33:08Z</time>
      </trkpt>
      <trkpt lat="49.3438" lon="0.11592">
        <ele>22.7</ele>
        <time>2011-09-11T15:33:10Z</time>
      </trkpt>
      <trkpt lat="49.3438" lon="0.1158">
        <ele>22.2</ele>
        <time>2011-09-11T15:33:19Z</time>
      </trkpt>
      <trkpt lat="49.34372" lon="0.11548">
        <ele>20.3</ele>
        <time>2011-09-11T15:33:33Z</time>
      </trkpt>
      <trkpt lat="49.34374" lon="0.1153">
        <ele>17.4</ele>
        <time>2011-09-11T15:33:44Z</time>
      </trkpt>
      <trkpt lat="49.34377" lon="0.11524">
        <ele>17</ele>
        <time>2011-09-11T15:33:49Z</time>
      </trkpt>
      <trkpt lat="49.34372" lon="0.11502">
        <ele>16</ele>
        <time>2011-09-11T15:34:02Z</time>
      </trkpt>
      <trkpt lat="49.34372" lon="0.11497">
        <ele>16</ele>
        <time>2011-09-11T15:34:04Z</time>
      </trkpt>
      <trkpt lat="49.34366" lon="0.11476">
        <ele>16</ele>
        <time>2011-09-11T15:34:16Z</time>
      </trkpt>
      <trkpt lat="49.34365" lon="0.11467">
        <ele>16.5</ele>
        <time>2011-09-11T15:34:20Z</time>
      </trkpt>
      <trkpt lat="49.34364" lon="0.11442">
        <ele>12.6</ele>
        <time>2011-09-11T15:34:30Z</time>
      </trkpt>
      <trkpt lat="49.34361" lon="0.11434">
        <ele>10.7</ele>
        <time>2011-09-11T15:34:35Z</time>
      </trkpt>
      <trkpt lat="49.34361" lon="0.11429">
        <ele>8.3</ele>
        <time>2011-09-11T15:34:41Z</time>
      </trkpt>
      <trkpt lat="49.3435" lon="0.11402">
        <ele>5.4</ele>
        <time>2011-09-11T15:34:54Z</time>
      </trkpt>
      <trkpt lat="49.34347" lon="0.11377">
        <ele>5.4</ele>
        <time>2011-09-11T15:35:07Z</time>
      </trkpt>
      <trkpt lat="49.34348" lon="0.11369">
        <ele>4.9</ele>
        <time>2011-09-11T15:35:13Z</time>
      </trkpt>
      <trkpt lat="49.34346" lon="0.11354">
        <ele>5.9</ele>
        <time>2011-09-11T15:35:19Z</time>
      </trkpt>
      <trkpt lat="49.34349" lon="0.11337">
        <ele>7.3</ele>
        <time>2011-09-11T15:35:25Z</time>
      </trkpt>
      <trkpt lat="49.34351" lon="0.11326">
        <ele>7.8</ele>
        <time>2011-09-11T15:35:35Z</time>
      </trkpt>
      <trkpt lat="49.34351" lon="0.11315">
        <ele>7.3</ele>
        <time>2011-09-11T15:35:40Z</time>
      </trkpt>
      <trkpt lat="49.34351" lon="0.11306">
        <ele>7.3</ele>
        <time>2011-09-11T15:35:44Z</time>
      </trkpt>
      <trkpt lat="49.34352" lon="0.11293">
        <ele>7.3</ele>
        <time>2011-09-11T15:35:49Z</time>
      </trkpt>
      <trkpt lat="49.34353" lon="0.11284">
        <ele>6.9</ele>
        <time>2011-09-11T15:35:53Z</time>
      </trkpt>
      <trkpt lat="49.34351" lon="0.11278">
        <ele>5.4</ele>
        <time>2011-09-11T15:36:03Z</time>
      </trkpt>
      <trkpt lat="49.34353" lon="0.11275">
        <ele>5.4</ele>
        <time>2011-09-11T15:36:06Z</time>
      </trkpt>
      <trkpt lat="49.34351" lon="0.11255">
        <ele>3</ele>
        <time>2011-09-11T15:36:17Z</time>
      </trkpt>
      <trkpt lat="49.34352" lon="0.11248">
        <ele>3</ele>
        <time>2011-09-11T15:36:21Z</time>
      </trkpt>
      <trkpt lat="49.34353" lon="0.11231">
        <ele>2.5</ele>
        <time>2011-09-11T15:36:28Z</time>
      </trkpt>
      <trkpt lat="49.34351" lon="0.11227">
        <ele>2.1</ele>
        <time>2011-09-11T15:36:30Z</time>
      </trkpt>
      <trkpt lat="49.34347" lon="0.11205">
        <ele>2.1</ele>
        <time>2011-09-11T15:36:41Z</time>
      </trkpt>
      <trkpt lat="49.34345" lon="0.11199">
        <ele>2.1</ele>
        <time>2011-09-11T15:36:45Z</time>
      </trkpt>
      <trkpt lat="49.34345" lon="0.11188">
        <ele>2.1</ele>
        <time>2011-09-11T15:36:50Z</time>
      </trkpt>
      <trkpt lat="49.34339" lon="0.11166">
        <ele>2.5</ele>
        <time>2011-09-11T15:36:59Z</time>
      </trkpt>
      <trkpt lat="49.34335" lon="0.11151">
        <ele>2.5</ele>
        <time>2011-09-11T15:37:07Z</time>
      </trkpt>
      <trkpt lat="49.34336" lon="0.11145">
        <ele>3</ele>
        <time>2011-09-11T15:37:10Z</time>
      </trkpt>
      <trkpt lat="49.34336" lon="0.1113">
        <ele>4</ele>
        <time>2011-09-11T15:37:22Z</time>
      </trkpt>
      <trkpt lat="49.34322" lon="0.11098">
        <ele>4.5</ele>
        <time>2011-09-11T15:37:40Z</time>
      </trkpt>
      <trkpt lat="49.34316" lon="0.11075">
        <ele>4</ele>
        <time>2011-09-11T15:37:50Z</time>
      </trkpt>
      <trkpt lat="49.34308" lon="0.11052">
        <ele>4.5</ele>
        <time>2011-09-11T15:38:03Z</time>
      </trkpt>
      <trkpt lat="49.34309" lon="0.1105">
        <ele>4.5</ele>
        <time>2011-09-11T15:38:04Z</time>
      </trkpt>
      <trkpt lat="49.34307" lon="0.11046">
        <ele>4.5</ele>
        <time>2011-09-11T15:38:08Z</time>
      </trkpt>
      <trkpt lat="49.34301" lon="0.11029">
        <ele>4</ele>
        <time>2011-09-11T15:38:20Z</time>
      </trkpt>
      <trkpt lat="49.34296" lon="0.10993">
        <ele>4.9</ele>
        <time>2011-09-11T15:38:36Z</time>
      </trkpt>
      <trkpt lat="49.34296" lon="0.1099">
        <ele>3.5</ele>
        <time>2011-09-11T15:38:38Z</time>
      </trkpt>
      <trkpt lat="49.34292" lon="0.1098">
        <ele>3.5</ele>
        <time>2011-09-11T15:38:43Z</time>
      </trkpt>
      <trkpt lat="49.34292" lon="0.10974">
        <ele>2.5</ele>
        <time>2011-09-11T15:38:46Z</time>
      </trkpt>
      <trkpt lat="49.34292" lon="0.10967">
        <ele>1.6</ele>
        <time>2011-09-11T15:38:50Z</time>
      </trkpt>
      <trkpt lat="49.34288" lon="0.10954">
        <ele>1.6</ele>
        <time>2011-09-11T15:38:55Z</time>
      </trkpt>
      <trkpt lat="49.34286" lon="0.10947">
        <ele>1.6</ele>
        <time>2011-09-11T15:38:59Z</time>
      </trkpt>
      <trkpt lat="49.34285" lon="0.10936">
        <ele>1.6</ele>
        <time>2011-09-11T15:39:04Z</time>
      </trkpt>
      <trkpt lat="49.34284" lon="0.1093">
        <ele>1.6</ele>
        <time>2011-09-11T15:39:07Z</time>
      </trkpt>
      <trkpt lat="49.34279" lon="0.10917">
        <ele>2.1</ele>
        <time>2011-09-11T15:39:14Z</time>
      </trkpt>
      <trkpt lat="49.34279" lon="0.10912">
        <ele>0.6</ele>
        <time>2011-09-11T15:39:17Z</time>
      </trkpt>
      <trkpt lat="49.34278" lon="0.10908">
        <ele>1.1</ele>
        <time>2011-09-11T15:39:21Z</time>
      </trkpt>
      <trkpt lat="49.34273" lon="0.10891">
        <ele>1.1</ele>
        <time>2011-09-11T15:39:35Z</time>
      </trkpt>
      <trkpt lat="49.34266" lon="0.10872">
        <ele>3</ele>
        <time>2011-09-11T15:39:45Z</time>
      </trkpt>
      <trkpt lat="49.34264" lon="0.10864">
        <ele>4.5</ele>
        <time>2011-09-11T15:39:49Z</time>
      </trkpt>
      <trkpt lat="49.34261" lon="0.10844">
        <ele>4.9</ele>
        <time>2011-09-11T15:39:56Z</time>
      </trkpt>
      <trkpt lat="49.34263" lon="0.10832">
        <ele>4.9</ele>
        <time>2011-09-11T15:40:02Z</time>
      </trkpt>
      <trkpt lat="49.34267" lon="0.10819">
        <ele>4</ele>
        <time>2011-09-11T15:40:14Z</time>
      </trkpt>
      <trkpt lat="49.34269" lon="0.10817">
        <ele>4</ele>
        <time>2011-09-11T15:40:17Z</time>
      </trkpt>
      <trkpt lat="49.34269" lon="0.10812">
        <ele>3.5</ele>
        <time>2011-09-11T15:40:19Z</time>
      </trkpt>
      <trkpt lat="49.34268" lon="0.10794">
        <ele>3</ele>
        <time>2011-09-11T15:40:26Z</time>
      </trkpt>
      <trkpt lat="49.34271" lon="0.10782">
        <ele>3</ele>
        <time>2011-09-11T15:40:31Z</time>
      </trkpt>
      <trkpt lat="49.34273" lon="0.1077">
        <ele>3</ele>
        <time>2011-09-11T15:40:37Z</time>
      </trkpt>
      <trkpt lat="49.34275" lon="0.10769">
        <ele>3</ele>
        <time>2011-09-11T15:40:39Z</time>
      </trkpt>
      <trkpt lat="49.34276" lon="0.10758">
        <ele>3</ele>
        <time>2011-09-11T15:40:50Z</time>
      </trkpt>
      <trkpt lat="49.34278" lon="0.10742">
        <ele>3.5</ele>
        <time>2011-09-11T15:41:01Z</time>
      </trkpt>
      <trkpt lat="49.34277" lon="0.10703">
        <ele>1.1</ele>
        <time>2011-09-11T15:41:17Z</time>
      </trkpt>
      <trkpt lat="49.34278" lon="0.10694">
        <ele>-1.8</ele>
        <time>2011-09-11T15:41:25Z</time>
      </trkpt>
      <trkpt lat="49.34278" lon="0.1069">
        <ele>-2.7</ele>
        <time>2011-09-11T15:41:32Z</time>
      </trkpt>
      <trkpt lat="49.34276" lon="0.10682">
        <ele>-3.7</ele>
        <time>2011-09-11T15:41:35Z</time>
      </trkpt>
      <trkpt lat="49.34273" lon="0.10666">
        <ele>-4.2</ele>
        <time>2011-09-11T15:41:43Z</time>
      </trkpt>
      <trkpt lat="49.34273" lon="0.10646">
        <ele>-4.2</ele>
        <time>2011-09-11T15:41:51Z</time>
      </trkpt>
      <trkpt lat="49.34272" lon="0.10633">
        <ele>-6.6</ele>
        <time>2011-09-11T15:41:57Z</time>
      </trkpt>
      <trkpt lat="49.34266" lon="0.10611">
        <ele>-9.5</ele>
        <time>2011-09-11T15:42:07Z</time>
      </trkpt>
      <trkpt lat="49.34261" lon="0.10595">
        <ele>-10.4</ele>
        <time>2011-09-11T15:42:13Z</time>
      </trkpt>
      <trkpt lat="49.34258" lon="0.10576">
        <ele>-11.9</ele>
        <time>2011-09-11T15:42:23Z</time>
      </trkpt>
      <trkpt lat="49.34253" lon="0.1055">
        <ele>-13.8</ele>
        <time>2011-09-11T15:42:33Z</time>
      </trkpt>
      <trkpt lat="49.3425" lon="0.10537">
        <ele>-12.8</ele>
        <time>2011-09-11T15:42:39Z</time>
      </trkpt>
      <trkpt lat="49.34255" lon="0.10521">
        <ele>-9</ele>
        <time>2011-09-11T15:42:43Z</time>
      </trkpt>
      <trkpt lat="49.34252" lon="0.10496">
        <ele>-8.5</ele>
        <time>2011-09-11T15:42:54Z</time>
      </trkpt>
      <trkpt lat="49.34248" lon="0.10476">
        <ele>-10.4</ele>
        <time>2011-09-11T15:43:02Z</time>
      </trkpt>
      <trkpt lat="49.34238" lon="0.10458">
        <ele>-13.3</ele>
        <time>2011-09-11T15:43:09Z</time>
      </trkpt>
      <trkpt lat="49.34238" lon="0.10454">
        <ele>-14.3</ele>
        <time>2011-09-11T15:43:11Z</time>
      </trkpt>
      <trkpt lat="49.34236" lon="0.10448">
        <ele>-14.8</ele>
        <time>2011-09-11T15:43:15Z</time>
      </trkpt>
      <trkpt lat="49.34233" lon="0.10442">
        <ele>-14.8</ele>
        <time>2011-09-11T15:43:20Z</time>
      </trkpt>
      <trkpt lat="49.3422" lon="0.10423">
        <ele>-14.8</ele>
        <time>2011-09-11T15:43:33Z</time>
      </trkpt>
      <trkpt lat="49.34209" lon="0.10415">
        <ele>-15.2</ele>
        <time>2011-09-11T15:43:42Z</time>
      </trkpt>
      <trkpt lat="49.34206" lon="0.10408">
        <ele>-15.2</ele>
        <time>2011-09-11T15:43:46Z</time>
      </trkpt>
      <trkpt lat="49.34201" lon="0.104">
        <ele>-15.2</ele>
        <time>2011-09-11T15:43:50Z</time>
      </trkpt>
      <trkpt lat="49.34195" lon="0.10391">
        <ele>-12.8</ele>
        <time>2011-09-11T15:44:03Z</time>
      </trkpt>
      <trkpt lat="49.34201" lon="0.10391">
        <ele>-13.8</ele>
        <time>2011-09-11T15:45:06Z</time>
      </trkpt>
      <trkpt lat="49.34201" lon="0.1039">
        <ele>-13.3</ele>
        <time>2011-09-11T15:45:46Z</time>
      </trkpt>
      <trkpt lat="49.34205" lon="0.10388">
        <ele>-13.3</ele>
        <time>2011-09-11T15:45:52Z</time>
      </trkpt>
      <trkpt lat="49.34206" lon="0.10384">
        <ele>-13.3</ele>
        <time>2011-09-11T15:45:54Z</time>
      </trkpt>
      <trkpt lat="49.34213" lon="0.10377">
        <ele>-11.9</ele>
        <time>2011-09-11T15:46:01Z</time>
      </trkpt>
      <trkpt lat="49.34225" lon="0.10365">
        <ele>-12.4</ele>
        <time>2011-09-11T15:46:15Z</time>
      </trkpt>
      <trkpt lat="49.34239" lon="0.10354">
        <ele>-11.4</ele>
        <time>2011-09-11T15:46:41Z</time>
      </trkpt>
      <trkpt lat="49.34255" lon="0.10348">
        <ele>-10.9</ele>
        <time>2011-09-11T15:47:14Z</time>
      </trkpt>
      <trkpt lat="49.34263" lon="0.10343">
        <ele>-9</ele>
        <time>2011-09-11T15:48:34Z</time>
      </trkpt>
      <trkpt lat="49.34268" lon="0.10336">
        <ele>-10.9</ele>
        <time>2011-09-11T15:48:39Z</time>
      </trkpt>
      <trkpt lat="49.34274" lon="0.10324">
        <ele>-11.4</ele>
        <time>2011-09-11T15:48:55Z</time>
      </trkpt>
      <trkpt lat="49.34275" lon="0.10324">
        <ele>-13.3</ele>
        <time>2011-09-11T15:49:27Z</time>
      </trkpt>
      <trkpt lat="49.34285" lon="0.10335">
        <ele>-12.8</ele>
        <time>2011-09-11T15:50:18Z</time>
      </trkpt>
      <trkpt lat="49.34287" lon="0.10345">
        <ele>-13.3</ele>
        <time>2011-09-11T15:50:26Z</time>
      </trkpt>
      <trkpt lat="49.34317" lon="0.1036">
        <ele>-11.4</ele>
        <time>2011-09-11T15:50:53Z</time>
      </trkpt>
      <trkpt lat="49.34348" lon="0.10366">
        <ele>-9.5</ele>
        <time>2011-09-11T15:51:19Z</time>
      </trkpt>
      <trkpt lat="49.34356" lon="0.10368">
        <ele>-8.5</ele>
        <time>2011-09-11T15:51:35Z</time>
      </trkpt>
      <trkpt lat="49.34356" lon="0.10367">
        <ele>-8</ele>
        <time>2011-09-11T15:51:38Z</time>
      </trkpt>
      <trkpt lat="49.34361" lon="0.10338">
        <ele>-8</ele>
        <time>2011-09-11T15:51:56Z</time>
      </trkpt>
      <trkpt lat="49.34364" lon="0.1032">
        <ele>-8</ele>
        <time>2011-09-11T15:52:08Z</time>
      </trkpt>
      <trkpt lat="49.3437" lon="0.10304">
        <ele>-9.5</ele>
        <time>2011-09-11T15:52:18Z</time>
      </trkpt>
      <trkpt lat="49.34374" lon="0.10291">
        <ele>-9</ele>
        <time>2011-09-11T15:52:25Z</time>
      </trkpt>
      <trkpt lat="49.34383" lon="0.10287">
        <ele>-7.6</ele>
        <time>2011-09-11T15:52:31Z</time>
      </trkpt>
      <trkpt lat="49.34399" lon="0.10267">
        <ele>-8</ele>
        <time>2011-09-11T15:52:55Z</time>
      </trkpt>
      <trkpt lat="49.34402" lon="0.10266">
        <ele>-8.5</ele>
        <time>2011-09-11T15:52:59Z</time>
      </trkpt>
      <trkpt lat="49.34416" lon="0.10267">
        <ele>-7.1</ele>
        <time>2011-09-11T15:53:18Z</time>
      </trkpt>
      <trkpt lat="49.34415" lon="0.10267">
        <ele>-8.5</ele>
        <time>2011-09-11T15:53:24Z</time>
      </trkpt>
    </trkseg>
  </trk>
</gpx>